Observation data for Rotan on 07/11/2018      Previous  Date       Current Mesonet Observations  Soil Data  Daily Summary Page  Observations in Plain Language
KRO1 110501Z 11006KT 26/20 A301 RMK A01 T02560204  RH  073%=      5-min Rain = 0
KRO1 110502Z 11006KT 26/20 A301 RMK A01 T02560204  RH  073%=      5-min Rain = 0
KRO1 110503Z 11005KT 26/20 A301 RMK A01 T02560204  RH  073%=      5-min Rain = 0
KRO1 110504Z 12006KT 26/21 A301 RMK A01 T02560205  RH  073%=      5-min Rain = 0
KRO1 110505Z 11006KT 26/21 A301 RMK A01 T02560205  RH  073%=      5-min Rain = 0
KRO1 110506Z 11006KT 26/21 A301 RMK A01 T02560205  RH  073%=      5-min Rain = 0
KRO1 110507Z 11006KT 26/21 A301 RMK A01 T02560205  RH  073%=      5-min Rain = 0
KRO1 110508Z 11007KT 26/21 A301 RMK A01 T02560205  RH  073%=      5-min Rain = 0
KRO1 110509Z 11007KT 26/21 A301 RMK A01 T02560205  RH  073%=      5-min Rain = 0
KRO1 110510Z 11006KT 26/21 A301 RMK A01 T02560205  RH  073%=      5-min Rain = 0
KRO1 110511Z 11006KT 26/21 A301 RMK A01 T02560205  RH  073%=      5-min Rain = 0
KRO1 110512Z 11007KT 26/21 A301 RMK A01 T02560205  RH  073%=      5-min Rain = 0
KRO1 110513Z 11006KT 26/21 A301 RMK A01 T02560205  RH  073%=      5-min Rain = 0
KRO1 110514Z 11007KT 26/20 A301 RMK A01 T02560204  RH  073%=      5-min Rain = 0
KRO1 110515Z 11006KT 26/20 A301 RMK A01 T02560204  RH  073%=      5-min Rain = 0
KRO1 110516Z 11005KT 26/20 A301 RMK A01 T02560204  RH  073%=      5-min Rain = 0
KRO1 110517Z 11006KT 26/20 A301 RMK A01 T02550204  RH  073%=      5-min Rain = 0
KRO1 110518Z 10006KT 26/20 A301 RMK A01 T02550203  RH  073%=      5-min Rain = 0
KRO1 110519Z 10006KT 26/20 A301 RMK A01 T02550204  RH  073%=      5-min Rain = 0
KRO1 110520Z 11006KT 26/20 A301 RMK A01 T02550203  RH  073%=      5-min Rain = 0
KRO1 110521Z 10006KT 26/20 A301 RMK A01 T02550203  RH  073%=      5-min Rain = 0
KRO1 110522Z 11006KT 25/20 A301 RMK A01 T02540203  RH  073%=      5-min Rain = 0
KRO1 110523Z 11006KT 26/20 A301 RMK A01 T02550203  RH  073%=      5-min Rain = 0
KRO1 110524Z 11007KT 25/20 A301 RMK A01 T02540203  RH  073%=      5-min Rain = 0
KRO1 110525Z 11006KT 25/20 A301 RMK A01 T02540203  RH  073%=      5-min Rain = 0
KRO1 110526Z 11005KT 26/20 A301 RMK A01 T02550203  RH  073%=      5-min Rain = 0
KRO1 110527Z 11006KT 25/20 A301 RMK A01 T02540203  RH  073%=      5-min Rain = 0
KRO1 110528Z 11006KT 25/20 A301 RMK A01 T02540203  RH  073%=      5-min Rain = 0
KRO1 110529Z 12007KT 25/20 A301 RMK A01 T02540202  RH  073%=      5-min Rain = 0
KRO1 110530Z 11007KT 25/20 A301 RMK A01 T02540202  RH  073%=      5-min Rain = 0
KRO1 110531Z 11007KT 25/20 A3009 RMK A01 T02540202  RH  073%=      5-min Rain = 0
KRO1 110532Z 11007KT 25/20 A3009 RMK A01 T02540201  RH  073%=      5-min Rain = 0
KRO1 110533Z 11007KT 25/20 A3009 RMK A01 T02540201  RH  073%=      5-min Rain = 0
KRO1 110534Z 12007KT 25/20 A3009 RMK A01 T02540201  RH  073%=      5-min Rain = 0
KRO1 110535Z 11007KT 25/20 A3009 RMK A01 T02540201  RH  073%=      5-min Rain = 0
KRO1 110536Z 11007KT 25/20 A3009 RMK A01 T02530200  RH  072%=      5-min Rain = 0
KRO1 110537Z 11008KT 25/20 A3009 RMK A01 T02540201  RH  072%=      5-min Rain = 0
KRO1 110538Z 12008KT 25/20 A3009 RMK A01 T02530200  RH  072%=      5-min Rain = 0
KRO1 110539Z 11007KT 25/20 A3009 RMK A01 T02540200  RH  072%=      5-min Rain = 0
KRO1 110540Z 12008KT 25/20 A3009 RMK A01 T02540200  RH  072%=      5-min Rain = 0
KRO1 110541Z 12008KT 25/20 A3009 RMK A01 T02540201  RH  072%=      5-min Rain = 0
KRO1 110542Z 12007KT 25/20 A3009 RMK A01 T02530200  RH  072%=      5-min Rain = 0
KRO1 110543Z 12007KT 25/20 A3009 RMK A01 T02530200  RH  072%=      5-min Rain = 0
KRO1 110544Z 12009KT 25/20 A3009 RMK A01 T02530200  RH  072%=      5-min Rain = 0
KRO1 110545Z 12008KT 25/20 A3009 RMK A01 T02530200  RH  072%=      5-min Rain = 0
KRO1 110546Z 12007KT 25/20 A3009 RMK A01 T02530200  RH  072%=      5-min Rain = 0
KRO1 110547Z 12008KT 25/20 A3009 RMK A01 T02530200  RH  073%=      5-min Rain = 0
KRO1 110548Z 12008KT 25/20 A3009 RMK A01 T02530201  RH  073%=      5-min Rain = 0
KRO1 110549Z 12007KT 25/20 A3009 RMK A01 T02530200  RH  073%=      5-min Rain = 0
KRO1 110550Z 12007KT 25/20 A3009 RMK A01 T02530201  RH  073%=      5-min Rain = 0
KRO1 110551Z 12008KT 25/20 A3009 RMK A01 T02530201  RH  073%=      5-min Rain = 0
KRO1 110552Z 12007KT 25/20 A3009 RMK A01 T02530200  RH  073%=      5-min Rain = 0
KRO1 110553Z 12008KT 25/20 A3009 RMK A01 T02520200  RH  073%=      5-min Rain = 0
KRO1 110554Z 12007KT 25/20 A3009 RMK A01 T02520201  RH  073%=      5-min Rain = 0
KRO1 110555Z 12007KT 25/20 A3009 RMK A01 T02520200  RH  073%=      5-min Rain = 0
KRO1 110556Z 12006KT 25/20 A3009 RMK A01 T02520200  RH  073%=      5-min Rain = 0
KRO1 110557Z 12007KT 25/20 A3009 RMK A01 T02510200  RH  073%=      5-min Rain = 0
KRO1 110558Z 12007KT 25/20 A3009 RMK A01 T02510200  RH  073%=      5-min Rain = 0
KRO1 110559Z 12006KT 25/20 A3009 RMK A01 T02510200  RH  073%=      5-min Rain = 0
KRO1 110600Z 12007KT 25/20 A3009 RMK A01 T02510200  RH  073%=      5-min Rain = 0
KRO1 110601Z 12007KT 25/20 A3009 RMK A01 T02500200  RH  073%=      5-min Rain = 0
KRO1 110602Z 13007KT 25/20 A3009 RMK A01 T02500200  RH  073%=      5-min Rain = 0
KRO1 110603Z 13006KT 25/20 A3009 RMK A01 T02500200  RH  074%=      5-min Rain = 0
KRO1 110604Z 13007KT 25/20 A3009 RMK A01 T02500200  RH  074%=      5-min Rain = 0
KRO1 110605Z 13007KT 25/20 A3009 RMK A01 T02490200  RH  074%=      5-min Rain = 0
KRO1 110606Z 13008KT 25/20 A3009 RMK A01 T02490199  RH  074%=      5-min Rain = 0
KRO1 110607Z 13008KT 25/20 A3009 RMK A01 T02490199  RH  074%=      5-min Rain = 0
KRO1 110608Z 13007KT 25/20 A3009 RMK A01 T02490199  RH  074%=      5-min Rain = 0
KRO1 110609Z 14007KT 25/20 A3009 RMK A01 T02490199  RH  074%=      5-min Rain = 0
KRO1 110610Z 13007KT 25/20 A3009 RMK A01 T02480199  RH  074%=      5-min Rain = 0
KRO1 110611Z 14007KT 25/20 A3009 RMK A01 T02480198  RH  074%=      5-min Rain = 0
KRO1 110612Z 14007KT 25/20 A3009 RMK A01 T02480199  RH  074%=      5-min Rain = 0
KRO1 110613Z 13007KT 25/20 A3009 RMK A01 T02470198  RH  074%=      5-min Rain = 0
KRO1 110614Z 13007KT 25/20 A3009 RMK A01 T02470198  RH  074%=      5-min Rain = 0
KRO1 110615Z 13007KT 25/20 A3009 RMK A01 T02470198  RH  074%=      5-min Rain = 0
KRO1 110616Z 14007KT 25/20 A3009 RMK A01 T02470198  RH  074%=      5-min Rain = 0
KRO1 110617Z 14006KT 25/20 A3009 RMK A01 T02470198  RH  074%=      5-min Rain = 0
KRO1 110618Z 14006KT 25/20 A3009 RMK A01 T02470198  RH  074%=      5-min Rain = 0
KRO1 110619Z 14006KT 25/20 A3009 RMK A01 T02460198  RH  074%=      5-min Rain = 0
KRO1 110620Z 15006KT 25/20 A3009 RMK A01 T02460198  RH  074%=      5-min Rain = 0
KRO1 110621Z 15006KT 25/20 A3009 RMK A01 T02460198  RH  074%=      5-min Rain = 0
KRO1 110622Z 15006KT 25/20 A3009 RMK A01 T02460197  RH  074%=      5-min Rain = 0
KRO1 110623Z 15006KT 25/20 A3009 RMK A01 T02460197  RH  074%=      5-min Rain = 0
KRO1 110624Z 15006KT 25/20 A3009 RMK A01 T02460197  RH  074%=      5-min Rain = 0
KRO1 110625Z 15006KT 25/20 A3009 RMK A01 T02460197  RH  074%=      5-min Rain = 0
KRO1 110626Z 15006KT 25/20 A3009 RMK A01 T02450197  RH  074%=      5-min Rain = 0
KRO1 110627Z 15006KT 25/20 A3009 RMK A01 T02450197  RH  074%=      5-min Rain = 0
KRO1 110628Z 15007KT 25/20 A3009 RMK A01 T02450197  RH  074%=      5-min Rain = 0
KRO1 110629Z 14006KT 25/20 A3009 RMK A01 T02450197  RH  075%=      5-min Rain = 0
KRO1 110630Z 14006KT 24/20 A3009 RMK A01 T02440196  RH  075%=      5-min Rain = 0
KRO1 110631Z 14006KT 24/20 A3009 RMK A01 T02440196  RH  075%=      5-min Rain = 0
KRO1 110632Z 14006KT 24/20 A3009 RMK A01 T02440197  RH  075%=      5-min Rain = 0
KRO1 110633Z 14006KT 24/20 A3009 RMK A01 T02430196  RH  075%=      5-min Rain = 0
KRO1 110634Z 14007KT 24/20 A3009 RMK A01 T02430196  RH  075%=      5-min Rain = 0
KRO1 110635Z 14007KT 24/20 A3009 RMK A01 T02430196  RH  075%=      5-min Rain = 0
KRO1 110636Z 14006KT 24/20 A3009 RMK A01 T02440197  RH  075%=      5-min Rain = 0
KRO1 110637Z 14006KT 24/20 A3009 RMK A01 T02440197  RH  075%=      5-min Rain = 0
KRO1 110638Z 14006KT 24/20 A3009 RMK A01 T02430197  RH  075%=      5-min Rain = 0
KRO1 110639Z 14007KT 24/20 A3009 RMK A01 T02430197  RH  075%=      5-min Rain = 0
KRO1 110640Z 14006KT 24/20 A3009 RMK A01 T02430197  RH  075%=      5-min Rain = 0
KRO1 110641Z 14007KT 24/20 A3009 RMK A01 T02430197  RH  075%=      5-min Rain = 0
KRO1 110642Z 14006KT 24/20 A3009 RMK A01 T02430197  RH  075%=      5-min Rain = 0
KRO1 110643Z 14006KT 24/20 A3009 RMK A01 T02430197  RH  075%=      5-min Rain = 0
KRO1 110644Z 15005KT 24/20 A3009 RMK A01 T02430196  RH  075%=      5-min Rain = 0
KRO1 110645Z 15005KT 24/20 A3009 RMK A01 T02430196  RH  075%=      5-min Rain = 0
KRO1 110646Z 15005KT 24/20 A3009 RMK A01 T02430196  RH  075%=      5-min Rain = 0
KRO1 110647Z 15005KT 24/20 A3009 RMK A01 T02430196  RH  075%=      5-min Rain = 0
KRO1 110648Z 15005KT 24/20 A3009 RMK A01 T02430196  RH  075%=      5-min Rain = 0
KRO1 110649Z 15005KT 24/20 A3009 RMK A01 T02430196  RH  075%=      5-min Rain = 0
KRO1 110650Z 15005KT 24/20 A3009 RMK A01 T02420196  RH  075%=      5-min Rain = 0
KRO1 110651Z 15004KT 24/20 A3009 RMK A01 T02420196  RH  075%=      5-min Rain = 0
KRO1 110652Z 15004KT 24/20 A3009 RMK A01 T02410196  RH  076%=      5-min Rain = 0
KRO1 110653Z 15005KT 24/20 A3009 RMK A01 T02410196  RH  076%=      5-min Rain = 0
KRO1 110654Z 16005KT 24/20 A3009 RMK A01 T02410196  RH  076%=      5-min Rain = 0
KRO1 110655Z 16005KT 24/20 A3009 RMK A01 T02410195  RH  076%=      5-min Rain = 0
KRO1 110656Z 16005KT 24/20 A3009 RMK A01 T02410195  RH  076%=      5-min Rain = 0
KRO1 110657Z 16005KT 24/20 A3009 RMK A01 T02400195  RH  076%=      5-min Rain = 0
KRO1 110658Z 16005KT 24/20 A3009 RMK A01 T02400195  RH  076%=      5-min Rain = 0
KRO1 110659Z 17005KT 24/20 A3009 RMK A01 T02400195  RH  076%=      5-min Rain = 0
KRO1 110700Z 16005KT 24/20 A3009 RMK A01 T02400195  RH  076%=      5-min Rain = 0
KRO1 110701Z 17005KT 24/19 A3009 RMK A01 T02390194  RH  076%=      5-min Rain = 0
KRO1 110702Z 17005KT 24/19 A3009 RMK A01 T02390194  RH  076%=      5-min Rain = 0
KRO1 110703Z 17006KT 24/19 A3009 RMK A01 T02380194  RH  076%=      5-min Rain = 0
KRO1 110704Z 17005KT 24/19 A3009 RMK A01 T02380193  RH  076%=      5-min Rain = 0
KRO1 110705Z 17005KT 24/19 A3009 RMK A01 T02370193  RH  076%=      5-min Rain = 0
KRO1 110706Z 17006KT 24/19 A3009 RMK A01 T02370193  RH  076%=      5-min Rain = 0
KRO1 110707Z 17006KT 24/19 A3009 RMK A01 T02360193  RH  077%=      5-min Rain = 0
KRO1 110708Z 17006KT 24/19 A3009 RMK A01 T02360193  RH  077%=      5-min Rain = 0
KRO1 110709Z 17006KT 24/19 A3009 RMK A01 T02360193  RH  077%=      5-min Rain = 0
KRO1 110710Z 17006KT 24/19 A3009 RMK A01 T02360193  RH  077%=      5-min Rain = 0
KRO1 110711Z 17006KT 24/19 A3009 RMK A01 T02350192  RH  077%=      5-min Rain = 0
KRO1 110712Z 17006KT 24/19 A3009 RMK A01 T02350192  RH  077%=      5-min Rain = 0
KRO1 110713Z 18005KT 24/19 A3009 RMK A01 T02350192  RH  077%=      5-min Rain = 0
KRO1 110714Z 18005KT 24/19 A3009 RMK A01 T02350193  RH  077%=      5-min Rain = 0
KRO1 110715Z 18005KT 23/19 A3008 RMK A01 T02340192  RH  077%=      5-min Rain = 0
KRO1 110716Z 18005KT 23/19 A3008 RMK A01 T02340193  RH  077%=      5-min Rain = 0
KRO1 110717Z 18005KT 23/19 A3008 RMK A01 T02340193  RH  077%=      5-min Rain = 0
KRO1 110718Z 18005KT 23/19 A3008 RMK A01 T02340193  RH  077%=      5-min Rain = 0
KRO1 110719Z 18005KT 23/19 A3009 RMK A01 T02340193  RH  078%=      5-min Rain = 0
KRO1 110720Z 18005KT 23/19 A3008 RMK A01 T02330192  RH  078%=      5-min Rain = 0
KRO1 110721Z 18005KT 23/19 A3008 RMK A01 T02330192  RH  078%=      5-min Rain = 0
KRO1 110722Z 18005KT 23/19 A3008 RMK A01 T02330192  RH  078%=      5-min Rain = 0
KRO1 110723Z 19005KT 23/19 A3008 RMK A01 T02320192  RH  078%=      5-min Rain = 0
KRO1 110724Z 19004KT 23/19 A3008 RMK A01 T02320192  RH  078%=      5-min Rain = 0
KRO1 110725Z 20004KT 23/19 A3008 RMK A01 T02330192  RH  078%=      5-min Rain = 0
KRO1 110726Z 20004KT 23/19 A3008 RMK A01 T02320192  RH  078%=      5-min Rain = 0
KRO1 110727Z 20003KT 23/19 A3008 RMK A01 T02320191  RH  078%=      5-min Rain = 0
KRO1 110728Z 19003KT 23/19 A3008 RMK A01 T02310191  RH  078%=      5-min Rain = 0
KRO1 110729Z 19003KT 23/19 A3008 RMK A01 T02310191  RH  078%=      5-min Rain = 0
KRO1 110730Z 18004KT 23/19 A3009 RMK A01 T02310191  RH  078%=      5-min Rain = 0
KRO1 110731Z 19004KT 23/19 A3009 RMK A01 T02300191  RH  078%=      5-min Rain = 0
KRO1 110732Z 19004KT 23/19 A3009 RMK A01 T02300191  RH  079%=      5-min Rain = 0
KRO1 110733Z 19004KT 23/19 A3009 RMK A01 T02300192  RH  079%=      5-min Rain = 0
KRO1 110734Z 18004KT 23/19 A3009 RMK A01 T02300192  RH  079%=      5-min Rain = 0
KRO1 110735Z 18003KT 23/19 A3009 RMK A01 T02300192  RH  079%=      5-min Rain = 0
KRO1 110736Z 18004KT 23/19 A3009 RMK A01 T02300192  RH  079%=      5-min Rain = 0
KRO1 110737Z 18004KT 23/19 A3009 RMK A01 T02300192  RH  079%=      5-min Rain = 0
KRO1 110738Z 18004KT 23/19 A3009 RMK A01 T02300192  RH  079%=      5-min Rain = 0
KRO1 110739Z 17004KT 23/19 A3009 RMK A01 T02310193  RH  079%=      5-min Rain = 0
KRO1 110740Z 17003KT 23/19 A3009 RMK A01 T02310192  RH  079%=      5-min Rain = 0
KRO1 110741Z 17003KT 23/19 A3009 RMK A01 T02310192  RH  079%=      5-min Rain = 0
KRO1 110742Z 16003KT 23/19 A3009 RMK A01 T02310192  RH  079%=      5-min Rain = 0
KRO1 110743Z 16002KT 23/19 A3009 RMK A01 T02300192  RH  079%=      5-min Rain = 0
KRO1 110744Z 16002KT 23/19 A3009 RMK A01 T02310192  RH  079%=      5-min Rain = 0
KRO1 110745Z 16002KT 23/19 A3009 RMK A01 T02310192  RH  079%=      5-min Rain = 0
KRO1 110746Z 16002KT 23/19 A3009 RMK A01 T02300192  RH  079%=      5-min Rain = 0
KRO1 110747Z 16002KT 23/19 A3009 RMK A01 T02300192  RH  079%=      5-min Rain = 0
KRO1 110748Z 16002KT 23/19 A3009 RMK A01 T02300192  RH  079%=      5-min Rain = 0
KRO1 110749Z 16002KT 23/19 A3009 RMK A01 T02290192  RH  079%=      5-min Rain = 0
KRO1 110750Z 16002KT 23/19 A3009 RMK A01 T02290192  RH  079%=      5-min Rain = 0
KRO1 110751Z 15002KT 23/19 A3009 RMK A01 T02290192  RH  079%=      5-min Rain = 0
KRO1 110752Z 13001KT 23/19 A3009 RMK A01 T02300192  RH  079%=      5-min Rain = 0
KRO1 110753Z 12001KT 23/19 A3009 RMK A01 T02290192  RH  079%=      5-min Rain = 0
KRO1 110754Z 12002KT 23/19 A3009 RMK A01 T02290192  RH  079%=      5-min Rain = 0
KRO1 110755Z 14002KT 23/19 A3009 RMK A01 T02290192  RH  079%=      5-min Rain = 0
KRO1 110756Z 12001KT 23/19 A3009 RMK A01 T02290192  RH  079%=      5-min Rain = 0
KRO1 110757Z 12001KT 23/19 A3009 RMK A01 T02290192  RH  080%=      5-min Rain = 0
KRO1 110758Z 12001KT 23/19 A3009 RMK A01 T02290192  RH  080%=      5-min Rain = 0
KRO1 110759Z 13001KT 23/19 A3009 RMK A01 T02290192  RH  080%=      5-min Rain = 0
KRO1 110800Z 14002KT 23/19 A3009 RMK A01 T02290193  RH  080%=      5-min Rain = 0
KRO1 110801Z 15002KT 23/19 A3009 RMK A01 T02290193  RH  080%=      5-min Rain = 0
KRO1 110802Z 15002KT 23/19 A3009 RMK A01 T02290193  RH  080%=      5-min Rain = 0
KRO1 110803Z 15002KT 23/19 A3009 RMK A01 T02290193  RH  080%=      5-min Rain = 0
KRO1 110804Z 15002KT 23/19 A3009 RMK A01 T02290193  RH  080%=      5-min Rain = 0
KRO1 110805Z 16002KT 23/19 A3009 RMK A01 T02290193  RH  080%=      5-min Rain = 0
KRO1 110806Z 15002KT 23/19 A3009 RMK A01 T02290193  RH  080%=      5-min Rain = 0
KRO1 110807Z 14001KT 23/19 A3009 RMK A01 T02290193  RH  080%=      5-min Rain = 0
KRO1 110808Z 15002KT 23/19 A3009 RMK A01 T02290193  RH  080%=      5-min Rain = 0
KRO1 110809Z 15002KT 23/19 A3009 RMK A01 T02290192  RH  080%=      5-min Rain = 0
KRO1 110810Z 15002KT 23/19 A3009 RMK A01 T02290192  RH  080%=      5-min Rain = 0
KRO1 110811Z 16003KT 23/19 A3009 RMK A01 T02280192  RH  080%=      5-min Rain = 0
KRO1 110812Z 16003KT 23/19 A3009 RMK A01 T02280192  RH  080%=      5-min Rain = 0
KRO1 110813Z 16003KT 23/19 A3009 RMK A01 T02280191  RH  080%=      5-min Rain = 0
KRO1 110814Z 16004KT 23/19 A3009 RMK A01 T02270190  RH  080%=      5-min Rain = 0
KRO1 110815Z 16004KT 23/19 A3009 RMK A01 T02260190  RH  080%=      5-min Rain = 0
KRO1 110816Z 17005KT 23/19 A3009 RMK A01 T02260191  RH  080%=      5-min Rain = 0
KRO1 110817Z 17006KT 23/19 A3009 RMK A01 T02260191  RH  080%=      5-min Rain = 0
KRO1 110818Z 17006KT 23/19 A3009 RMK A01 T02260191  RH  081%=      5-min Rain = 0
KRO1 110819Z 17007KT 23/19 A3009 RMK A01 T02260191  RH  081%=      5-min Rain = 0
KRO1 110820Z 17007KT 23/19 A3009 RMK A01 T02260191  RH  081%=      5-min Rain = 0
KRO1 110821Z 17008KT 23/19 A3009 RMK A01 T02260192  RH  081%=      5-min Rain = 0
KRO1 110822Z 17009KT 23/19 A3009 RMK A01 T02270192  RH  081%=      5-min Rain = 0
KRO1 110823Z 17009KT 23/19 A3009 RMK A01 T02280192  RH  080%=      5-min Rain = 0
KRO1 110824Z 17009KT 23/19 A3009 RMK A01 T02280192  RH  080%=      5-min Rain = 0
KRO1 110825Z 17008KT 23/19 A3009 RMK A01 T02290192  RH  080%=      5-min Rain = 0
KRO1 110826Z 17008KT 23/19 A3009 RMK A01 T02300193  RH  080%=      5-min Rain = 0
KRO1 110827Z 17007KT 23/19 A3009 RMK A01 T02300193  RH  079%=      5-min Rain = 0
KRO1 110828Z 17008KT 23/19 A3009 RMK A01 T02300192  RH  079%=      5-min Rain = 0
KRO1 110829Z 17008KT 23/19 A3009 RMK A01 T02300192  RH  079%=      5-min Rain = 0
KRO1 110830Z 17007KT 23/19 A3009 RMK A01 T02300192  RH  079%=      5-min Rain = 0
KRO1 110831Z 17007KT 23/19 A3009 RMK A01 T02300192  RH  079%=      5-min Rain = 0
KRO1 110832Z 17007KT 23/19 A3009 RMK A01 T02300193  RH  079%=      5-min Rain = 0
KRO1 110833Z 17007KT 23/19 A3009 RMK A01 T02300192  RH  079%=      5-min Rain = 0
KRO1 110834Z 17007KT 23/19 A3009 RMK A01 T02300193  RH  079%=      5-min Rain = 0
KRO1 110835Z 17007KT 23/19 A3009 RMK A01 T02300193  RH  079%=      5-min Rain = 0
KRO1 110836Z 17006KT 23/19 A3009 RMK A01 T02300193  RH  079%=      5-min Rain = 0
KRO1 110837Z 17006KT 23/19 A3009 RMK A01 T02300192  RH  079%=      5-min Rain = 0
KRO1 110838Z 17006KT 23/19 A3009 RMK A01 T02300192  RH  079%=      5-min Rain = 0
KRO1 110839Z 17006KT 23/19 A3009 RMK A01 T02300193  RH  079%=      5-min Rain = 0
KRO1 110840Z 17006KT 23/19 A3009 RMK A01 T02300192  RH  080%=      5-min Rain = 0
KRO1 110841Z 17006KT 23/19 A3009 RMK A01 T02290192  RH  080%=      5-min Rain = 0
KRO1 110842Z 17006KT 23/19 A3009 RMK A01 T02290192  RH  080%=      5-min Rain = 0
KRO1 110843Z 17006KT 23/19 A3009 RMK A01 T02280192  RH  080%=      5-min Rain = 0
KRO1 110844Z 18006KT 23/19 A3009 RMK A01 T02280192  RH  080%=      5-min Rain = 0
KRO1 110845Z 18006KT 23/19 A3009 RMK A01 T02280192  RH  080%=      5-min Rain = 0
KRO1 110846Z 17007KT 23/19 A3009 RMK A01 T02280192  RH  080%=      5-min Rain = 0
KRO1 110847Z 17007KT 23/19 A3009 RMK A01 T02270192  RH  080%=      5-min Rain = 0
KRO1 110848Z 17007KT 23/19 A3009 RMK A01 T02270192  RH  080%=      5-min Rain = 0
KRO1 110849Z 17007KT 23/19 A3009 RMK A01 T02280192  RH  080%=      5-min Rain = 0
KRO1 110850Z 17006KT 23/19 A3009 RMK A01 T02280192  RH  080%=      5-min Rain = 0
KRO1 110851Z 17007KT 23/19 A3009 RMK A01 T02270192  RH  080%=      5-min Rain = 0
KRO1 110852Z 17007KT 23/19 A3009 RMK A01 T02270191  RH  080%=      5-min Rain = 0
KRO1 110853Z 17007KT 23/19 A3009 RMK A01 T02270191  RH  080%=      5-min Rain = 0
KRO1 110854Z 17007KT 23/19 A3009 RMK A01 T02270191  RH  080%=      5-min Rain = 0
KRO1 110855Z 17007KT 23/19 A3009 RMK A01 T02270191  RH  080%=      5-min Rain = 0
KRO1 110856Z 17007KT 23/19 A3009 RMK A01 T02260191  RH  080%=      5-min Rain = 0
KRO1 110857Z 17007KT 23/19 A3009 RMK A01 T02260191  RH  080%=      5-min Rain = 0
KRO1 110858Z 17007KT 23/19 A3009 RMK A01 T02260191  RH  081%=      5-min Rain = 0
KRO1 110859Z 18007KT 23/19 A3009 RMK A01 T02260191  RH  081%=      5-min Rain = 0
KRO1 110900Z 18007KT 23/19 A3009 RMK A01 T02260191  RH  081%=      5-min Rain = 0
KRO1 110901Z 18007KT 23/19 A3009 RMK A01 T02260191  RH  081%=      5-min Rain = 0
KRO1 110902Z 18007KT 23/19 A3009 RMK A01 T02250190  RH  080%=      5-min Rain = 0
KRO1 110903Z 18007KT 23/19 A3009 RMK A01 T02260190  RH  080%=      5-min Rain = 0
KRO1 110904Z 18007KT 23/19 A3009 RMK A01 T02260190  RH  080%=      5-min Rain = 0
KRO1 110905Z 18007KT 23/19 A3009 RMK A01 T02260190  RH  080%=      5-min Rain = 0
KRO1 110906Z 18006KT 23/19 A3009 RMK A01 T02260190  RH  080%=      5-min Rain = 0
KRO1 110907Z 18006KT 23/19 A3009 RMK A01 T02260190  RH  080%=      5-min Rain = 0
KRO1 110908Z 18006KT 23/19 A3009 RMK A01 T02260191  RH  080%=      5-min Rain = 0
KRO1 110909Z 18006KT 23/19 A3009 RMK A01 T02260191  RH  081%=      5-min Rain = 0
KRO1 110910Z 18006KT 23/19 A3009 RMK A01 T02260191  RH  081%=      5-min Rain = 0
KRO1 110911Z 18006KT 23/19 A3009 RMK A01 T02250191  RH  081%=      5-min Rain = 0
KRO1 110912Z 19007KT 23/19 A3009 RMK A01 T02250191  RH  081%=      5-min Rain = 0
KRO1 110913Z 19008KT 23/19 A3009 RMK A01 T02250191  RH  081%=      5-min Rain = 0
KRO1 110914Z 19007KT 23/19 A3009 RMK A01 T02250191  RH  081%=      5-min Rain = 0
KRO1 110915Z 19007KT 23/19 A3009 RMK A01 T02250191  RH  081%=      5-min Rain = 0
KRO1 110916Z 19007KT 23/19 A3009 RMK A01 T02250191  RH  081%=      5-min Rain = 0
KRO1 110917Z 19007KT 23/19 A3009 RMK A01 T02250190  RH  081%=      5-min Rain = 0
KRO1 110918Z 19007KT 23/19 A3009 RMK A01 T02260190  RH  080%=      5-min Rain = 0
KRO1 110919Z 19007KT 23/19 A3009 RMK A01 T02260190  RH  080%=      5-min Rain = 0
KRO1 110920Z 19006KT 23/19 A3009 RMK A01 T02260190  RH  080%=      5-min Rain = 0
KRO1 110921Z 19007KT 23/19 A3009 RMK A01 T02260190  RH  080%=      5-min Rain = 0
KRO1 110922Z 20007KT 23/19 A3009 RMK A01 T02260190  RH  080%=      5-min Rain = 0
KRO1 110923Z 20007KT 23/19 A3009 RMK A01 T02260190  RH  080%=      5-min Rain = 0
KRO1 110924Z 20007KT 23/19 A3009 RMK A01 T02260189  RH  080%=      5-min Rain = 0
KRO1 110925Z 20007KT 23/19 A3009 RMK A01 T02260189  RH  080%=      5-min Rain = 0
KRO1 110926Z 20007KT 23/19 A3009 RMK A01 T02260189  RH  080%=      5-min Rain = 0
KRO1 110927Z 20007KT 23/19 A3009 RMK A01 T02260188  RH  079%=      5-min Rain = 0
KRO1 110928Z 21007KT 23/19 A3009 RMK A01 T02260188  RH  079%=      5-min Rain = 0
KRO1 110929Z 21007KT 23/19 A3009 RMK A01 T02260187  RH  079%=      5-min Rain = 0
KRO1 110930Z 21006KT 23/19 A3009 RMK A01 T02260187  RH  079%=      5-min Rain = 0
KRO1 110931Z 21006KT 23/19 A3009 RMK A01 T02270187  RH  078%=      5-min Rain = 0
KRO1 110932Z 21006KT 23/19 A3009 RMK A01 T02260187  RH  078%=      5-min Rain = 0
KRO1 110933Z 21006KT 23/19 A3009 RMK A01 T02250186  RH  078%=      5-min Rain = 0
KRO1 110934Z 21006KT 23/19 A3009 RMK A01 T02260186  RH  078%=      5-min Rain = 0
KRO1 110935Z 21006KT 23/19 A3009 RMK A01 T02260185  RH  078%=      5-min Rain = 0
KRO1 110936Z 21006KT 23/19 A3009 RMK A01 T02260185  RH  078%=      5-min Rain = 0
KRO1 110937Z 21006KT 23/19 A3009 RMK A01 T02260185  RH  078%=      5-min Rain = 0
KRO1 110938Z 21006KT 23/18 A3009 RMK A01 T02260184  RH  077%=      5-min Rain = 0
KRO1 110939Z 21006KT 23/18 A3009 RMK A01 T02260184  RH  077%=      5-min Rain = 0
KRO1 110940Z 21006KT 23/18 A3009 RMK A01 T02260183  RH  077%=      5-min Rain = 0
KRO1 110941Z 21006KT 23/18 A3009 RMK A01 T02260183  RH  076%=      5-min Rain = 0
KRO1 110942Z 22006KT 23/18 A3009 RMK A01 T02260183  RH  076%=      5-min Rain = 0
KRO1 110943Z 22006KT 23/18 A3009 RMK A01 T02270183  RH  076%=      5-min Rain = 0
KRO1 110944Z 22006KT 23/18 A3009 RMK A01 T02270183  RH  076%=      5-min Rain = 0
KRO1 110945Z 22005KT 23/18 A3009 RMK A01 T02270183  RH  076%=      5-min Rain = 0
KRO1 110946Z 22005KT 23/18 A3009 RMK A01 T02260182  RH  076%=      5-min Rain = 0
KRO1 110947Z 22005KT 23/18 A3009 RMK A01 T02260182  RH  076%=      5-min Rain = 0
KRO1 110948Z 22005KT 23/18 A3009 RMK A01 T02260181  RH  076%=      5-min Rain = 0
KRO1 110949Z 22005KT 23/18 A3009 RMK A01 T02260181  RH  076%=      5-min Rain = 0
KRO1 110950Z 23004KT 23/18 A3009 RMK A01 T02250181  RH  076%=      5-min Rain = 0
KRO1 110951Z 23004KT 23/18 A3009 RMK A01 T02250181  RH  076%=      5-min Rain = 0
KRO1 110952Z 23004KT 22/18 A3009 RMK A01 T02240181  RH  076%=      5-min Rain = 0
KRO1 110953Z 23004KT 22/18 A3009 RMK A01 T02240181  RH  077%=      5-min Rain = 0
KRO1 110954Z 24004KT 22/18 A3009 RMK A01 T02230181  RH  077%=      5-min Rain = 0
KRO1 110955Z 24005KT 22/18 A3009 RMK A01 T02230181  RH  077%=      5-min Rain = 0
KRO1 110956Z 24005KT 22/18 A3009 RMK A01 T02230181  RH  077%=      5-min Rain = 0
KRO1 110957Z 24005KT 22/18 A3009 RMK A01 T02230182  RH  077%=      5-min Rain = 0
KRO1 110958Z 24005KT 22/18 A3009 RMK A01 T02230182  RH  077%=      5-min Rain = 0
KRO1 110959Z 24005KT 22/18 A3009 RMK A01 T02230182  RH  078%=      5-min Rain = 0
KRO1 111000Z 23005KT 22/18 A3009 RMK A01 T02220182  RH  078%=      5-min Rain = 0
KRO1 111001Z 23005KT 22/18 A3009 RMK A01 T02220182  RH  078%=      5-min Rain = 0
KRO1 111002Z 23006KT 22/18 A3009 RMK A01 T02220182  RH  078%=      5-min Rain = 0
KRO1 111003Z 23005KT 22/18 A3009 RMK A01 T02220182  RH  078%=      5-min Rain = 0
KRO1 111004Z 23005KT 22/18 A3009 RMK A01 T02220182  RH  078%=      5-min Rain = 0
KRO1 111005Z 23005KT 22/18 A3009 RMK A01 T02220182  RH  078%=      5-min Rain = 0
KRO1 111006Z 23005KT 22/18 A3009 RMK A01 T02220182  RH  078%=      5-min Rain = 0
KRO1 111007Z 23005KT 22/18 A3009 RMK A01 T02220182  RH  078%=      5-min Rain = 0
KRO1 111008Z 23006KT 22/18 A3009 RMK A01 T02220181  RH  078%=      5-min Rain = 0
KRO1 111009Z 23006KT 22/18 A3009 RMK A01 T02220181  RH  077%=      5-min Rain = 0
KRO1 111010Z 23006KT 22/18 A3009 RMK A01 T02230180  RH  077%=      5-min Rain = 0
KRO1 111011Z 23005KT 22/18 A3009 RMK A01 T02230179  RH  076%=      5-min Rain = 0
KRO1 111012Z 22005KT 22/18 A3009 RMK A01 T02230179  RH  076%=      5-min Rain = 0
KRO1 111013Z 23004KT 22/18 A3009 RMK A01 T02230179  RH  076%=      5-min Rain = 0
KRO1 111014Z 22003KT 22/18 A3009 RMK A01 T02230179  RH  076%=      5-min Rain = 0
KRO1 111015Z 22003KT 22/18 A3009 RMK A01 T02220178  RH  076%=      5-min Rain = 0
KRO1 111016Z 22003KT 22/18 A3009 RMK A01 T02220177  RH  076%=      5-min Rain = 0
KRO1 111017Z 21002KT 22/18 A3009 RMK A01 T02210178  RH  077%=      5-min Rain = 0
KRO1 111018Z 22002KT 22/18 A3009 RMK A01 T02210179  RH  077%=      5-min Rain = 0
KRO1 111019Z 23003KT 22/18 A3009 RMK A01 T02210178  RH  077%=      5-min Rain = 0
KRO1 111020Z 23004KT 22/18 A3009 RMK A01 T02210176  RH  076%=      5-min Rain = 0
KRO1 111021Z 23004KT 22/18 A3009 RMK A01 T02210175  RH  075%=      5-min Rain = 0
KRO1 111022Z 23005KT 22/17 A3009 RMK A01 T02210172  RH  074%=      5-min Rain = 0
KRO1 111023Z 23005KT 22/17 A3009 RMK A01 T02210172  RH  074%=      5-min Rain = 0
KRO1 111024Z 23005KT 22/17 A3009 RMK A01 T02220171  RH  073%=      5-min Rain = 0
KRO1 111025Z 23005KT 22/17 A3009 RMK A01 T02210171  RH  073%=      5-min Rain = 0
KRO1 111026Z 23006KT 22/17 A3009 RMK A01 T02220171  RH  073%=      5-min Rain = 0
KRO1 111027Z 23006KT 22/17 A3008 RMK A01 T02210170  RH  073%=      5-min Rain = 0
KRO1 111028Z 23006KT 22/17 A3008 RMK A01 T02220170  RH  072%=      5-min Rain = 0
KRO1 111029Z 23006KT 22/17 A3008 RMK A01 T02220170  RH  072%=      5-min Rain = 0
KRO1 111030Z 23006KT 22/17 A3008 RMK A01 T02230170  RH  072%=      5-min Rain = 0
KRO1 111031Z 22005KT 22/17 A3008 RMK A01 T02220169  RH  072%=      5-min Rain = 0
KRO1 111032Z 22005KT 22/17 A3008 RMK A01 T02220169  RH  072%=      5-min Rain = 0
KRO1 111033Z 22005KT 22/17 A3008 RMK A01 T02220169  RH  072%=      5-min Rain = 0
KRO1 111034Z 22004KT 22/17 A3009 RMK A01 T02220169  RH  072%=      5-min Rain = 0
KRO1 111035Z 22004KT 22/17 A3009 RMK A01 T02220168  RH  072%=      5-min Rain = 0
KRO1 111036Z 22004KT 22/17 A3009 RMK A01 T02210169  RH  072%=      5-min Rain = 0
KRO1 111037Z 22004KT 22/17 A3009 RMK A01 T02210168  RH  072%=      5-min Rain = 0
KRO1 111038Z 22004KT 22/17 A3009 RMK A01 T02210168  RH  072%=      5-min Rain = 0
KRO1 111039Z 22004KT 22/17 A3009 RMK A01 T02210168  RH  072%=      5-min Rain = 0
KRO1 111040Z 23004KT 22/17 A3009 RMK A01 T02200167  RH  072%=      5-min Rain = 0
KRO1 111041Z 23004KT 22/17 A3009 RMK A01 T02210167  RH  072%=      5-min Rain = 0
KRO1 111042Z 23004KT 22/17 A3009 RMK A01 T02210168  RH  072%=      5-min Rain = 0
KRO1 111043Z 23004KT 22/17 A3009 RMK A01 T02200167  RH  072%=      5-min Rain = 0
KRO1 111044Z 23004KT 22/17 A3009 RMK A01 T02210167  RH  072%=      5-min Rain = 0
KRO1 111045Z 22004KT 22/17 A3009 RMK A01 T02210167  RH  072%=      5-min Rain = 0
KRO1 111046Z 22004KT 22/17 A3009 RMK A01 T02210167  RH  072%=      5-min Rain = 0
KRO1 111047Z 22004KT 22/17 A3009 RMK A01 T02210167  RH  072%=      5-min Rain = 0
KRO1 111048Z 23004KT 22/17 A3009 RMK A01 T02210168  RH  072%=      5-min Rain = 0
KRO1 111049Z 23004KT 22/17 A3009 RMK A01 T02200167  RH  072%=      5-min Rain = 0
KRO1 111050Z 23004KT 22/17 A3009 RMK A01 T02190167  RH  072%=      5-min Rain = 0
KRO1 111051Z 23004KT 22/17 A3008 RMK A01 T02190167  RH  072%=      5-min Rain = 0
KRO1 111052Z 22004KT 22/17 A3008 RMK A01 T02190167  RH  072%=      5-min Rain = 0
KRO1 111053Z 22004KT 22/17 A3008 RMK A01 T02190167  RH  072%=      5-min Rain = 0
KRO1 111054Z 22004KT 22/17 A3008 RMK A01 T02190167  RH  072%=      5-min Rain = 0
KRO1 111055Z 22004KT 22/17 A3008 RMK A01 T02190167  RH  072%=      5-min Rain = 0
KRO1 111056Z 22005KT 22/17 A3008 RMK A01 T02190167  RH  073%=      5-min Rain = 0
KRO1 111057Z 22005KT 22/17 A3009 RMK A01 T02180167  RH  073%=      5-min Rain = 0
KRO1 111058Z 22005KT 22/17 A3009 RMK A01 T02180167  RH  073%=      5-min Rain = 0
KRO1 111059Z 22005KT 22/17 A3009 RMK A01 T02180167  RH  073%=      5-min Rain = 0
KRO1 111100Z 22005KT 22/17 A3009 RMK A01 T02180167  RH  073%=      5-min Rain = 0
KRO1 111101Z 22006KT 22/17 A3009 RMK A01 T02170166  RH  073%=      5-min Rain = 0
KRO1 111102Z 22005KT 22/17 A3009 RMK A01 T02170166  RH  073%=      5-min Rain = 0
KRO1 111103Z 22005KT 22/17 A3009 RMK A01 T02170167  RH  073%=      5-min Rain = 0
KRO1 111104Z 23005KT 22/17 A3009 RMK A01 T02170166  RH  073%=      5-min Rain = 0
KRO1 111105Z 23005KT 22/17 A3009 RMK A01 T02170166  RH  073%=      5-min Rain = 0
KRO1 111106Z 23005KT 22/17 A3009 RMK A01 T02170166  RH  073%=      5-min Rain = 0
KRO1 111107Z 22005KT 22/17 A3009 RMK A01 T02160165  RH  073%=      5-min Rain = 0
KRO1 111108Z 23005KT 22/17 A3009 RMK A01 T02160165  RH  072%=      5-min Rain = 0
KRO1 111109Z 23005KT 22/17 A3009 RMK A01 T02170165  RH  072%=      5-min Rain = 0
KRO1 111110Z 23005KT 22/16 A3009 RMK A01 T02170164  RH  072%=      5-min Rain = 0
KRO1 111111Z 23005KT 22/16 A3009 RMK A01 T02170164  RH  072%=      5-min Rain = 0
KRO1 111112Z 23005KT 22/17 A3009 RMK A01 T02180165  RH  072%=      5-min Rain = 0
KRO1 111113Z 23005KT 22/17 A3009 RMK A01 T02180165  RH  072%=      5-min Rain = 0
KRO1 111114Z 23005KT 22/17 A3009 RMK A01 T02180165  RH  072%=      5-min Rain = 0
KRO1 111115Z 23006KT 22/17 A3009 RMK A01 T02190165  RH  071%=      5-min Rain = 0
KRO1 111116Z 23005KT 22/17 A3009 RMK A01 T02190165  RH  071%=      5-min Rain = 0
KRO1 111117Z 23006KT 22/17 A3009 RMK A01 T02190165  RH  071%=      5-min Rain = 0
KRO1 111118Z 23006KT 22/17 A3009 RMK A01 T02190165  RH  071%=      5-min Rain = 0
KRO1 111119Z 23006KT 22/17 A3009 RMK A01 T02190165  RH  071%=      5-min Rain = 0
KRO1 111120Z 24006KT 22/17 A3009 RMK A01 T02190165  RH  071%=      5-min Rain = 0
KRO1 111121Z 23006KT 22/17 A3009 RMK A01 T02200165  RH  071%=      5-min Rain = 0
KRO1 111122Z 23006KT 22/17 A3009 RMK A01 T02200165  RH  071%=      5-min Rain = 0
KRO1 111123Z 23006KT 22/17 A3009 RMK A01 T02200165  RH  071%=      5-min Rain = 0
KRO1 111124Z 23006KT 22/17 A3009 RMK A01 T02200166  RH  071%=      5-min Rain = 0
KRO1 111125Z 23006KT 22/17 A3009 RMK A01 T02200166  RH  071%=      5-min Rain = 0
KRO1 111126Z 24006KT 22/17 A3009 RMK A01 T02190165  RH  071%=      5-min Rain = 0
KRO1 111127Z 24006KT 22/17 A3009 RMK A01 T02190165  RH  072%=      5-min Rain = 0
KRO1 111128Z 24006KT 22/17 A301 RMK A01 T02190166  RH  072%=      5-min Rain = 0
KRO1 111129Z 24006KT 22/17 A301 RMK A01 T02190166  RH  072%=      5-min Rain = 0
KRO1 111130Z 24006KT 22/17 A301 RMK A01 T02180165  RH  072%=      5-min Rain = 0
KRO1 111131Z 24006KT 22/17 A301 RMK A01 T02180165  RH  072%=      5-min Rain = 0
KRO1 111132Z 24006KT 22/17 A301 RMK A01 T02180165  RH  072%=      5-min Rain = 0
KRO1 111133Z 24005KT 22/17 A301 RMK A01 T02180165  RH  072%=      5-min Rain = 0
KRO1 111134Z 24005KT 22/17 A301 RMK A01 T02180166  RH  072%=      5-min Rain = 0
KRO1 111135Z 24005KT 22/17 A301 RMK A01 T02170165  RH  072%=      5-min Rain = 0
KRO1 111136Z 24006KT 22/17 A301 RMK A01 T02170165  RH  072%=      5-min Rain = 0
KRO1 111137Z 24006KT 22/17 A301 RMK A01 T02170165  RH  073%=      5-min Rain = 0
KRO1 111138Z 24006KT 22/17 A301 RMK A01 T02160165  RH  073%=      5-min Rain = 0
KRO1 111139Z 24006KT 22/17 A301 RMK A01 T02160165  RH  073%=      5-min Rain = 0
KRO1 111140Z 24007KT 22/17 A301 RMK A01 T02160165  RH  073%=      5-min Rain = 0
KRO1 111141Z 24007KT 22/17 A301 RMK A01 T02160165  RH  073%=      5-min Rain = 0
KRO1 111142Z 24007KT 22/17 A301 RMK A01 T02170165  RH  072%=      5-min Rain = 0
KRO1 111143Z 24007KT 22/16 A301 RMK A01 T02170164  RH  072%=      5-min Rain = 0
KRO1 111144Z 24007KT 22/16 A301 RMK A01 T02180164  RH  072%=      5-min Rain = 0
KRO1 111145Z 24006KT 22/16 A301 RMK A01 T02180164  RH  071%=      5-min Rain = 0
KRO1 111146Z 24007KT 22/16 A301 RMK A01 T02190164  RH  071%=      5-min Rain = 0
KRO1 111147Z 24006KT 22/16 A301 RMK A01 T02190164  RH  071%=      5-min Rain = 0
KRO1 111148Z 24007KT 22/16 A301 RMK A01 T02190164  RH  071%=      5-min Rain = 0
KRO1 111149Z 24007KT 22/16 A301 RMK A01 T02200164  RH  071%=      5-min Rain = 0
KRO1 111150Z 24007KT 22/16 A301 RMK A01 T02200164  RH  071%=      5-min Rain = 0
KRO1 111151Z 24007KT 22/16 A301 RMK A01 T02200164  RH  071%=      5-min Rain = 0
KRO1 111152Z 24007KT 22/16 A301 RMK A01 T02200164  RH  071%=      5-min Rain = 0
KRO1 111153Z 24007KT 22/16 A301 RMK A01 T02200164  RH  071%=      5-min Rain = 0
KRO1 111154Z 24007KT 22/16 A301 RMK A01 T02200164  RH  071%=      5-min Rain = 0
KRO1 111155Z 24007KT 22/16 A301 RMK A01 T02200164  RH  071%=      5-min Rain = 0
KRO1 111156Z 24007KT 22/17 A301 RMK A01 T02200165  RH  071%=      5-min Rain = 0
KRO1 111157Z 24007KT 22/17 A301 RMK A01 T02190165  RH  071%=      5-min Rain = 0
KRO1 111158Z 24007KT 22/17 A301 RMK A01 T02190165  RH  071%=      5-min Rain = 0
KRO1 111159Z 23007KT 22/17 A301 RMK A01 T02190165  RH  071%=      5-min Rain = 0
KRO1 111200Z 23007KT 22/17 A301 RMK A01 T02190165  RH  071%=      5-min Rain = 0
KRO1 111201Z 23006KT 22/17 A301 RMK A01 T02190165  RH  071%=      5-min Rain = 0
KRO1 111202Z 23006KT 22/17 A301 RMK A01 T02180165  RH  072%=      5-min Rain = 0
KRO1 111203Z 23006KT 22/17 A301 RMK A01 T02180165  RH  072%=      5-min Rain = 0
KRO1 111204Z 23006KT 22/17 A301 RMK A01 T02170165  RH  072%=      5-min Rain = 0
KRO1 111205Z 23006KT 22/17 A301 RMK A01 T02170165  RH  072%=      5-min Rain = 0
KRO1 111206Z 23006KT 22/17 A301 RMK A01 T02170165  RH  072%=      5-min Rain = 0
KRO1 111207Z 23006KT 22/17 A301 RMK A01 T02170165  RH  072%=      5-min Rain = 0
KRO1 111208Z 23006KT 22/17 A301 RMK A01 T02160165  RH  073%=      5-min Rain = 0
KRO1 111209Z 23006KT 22/17 A301 RMK A01 T02160165  RH  073%=      5-min Rain = 0
KRO1 111210Z 23006KT 22/17 A301 RMK A01 T02160165  RH  073%=      5-min Rain = 0
KRO1 111211Z 23006KT 22/17 A301 RMK A01 T02150165  RH  073%=      5-min Rain = 0
KRO1 111212Z 23006KT 22/16 A301 RMK A01 T02160164  RH  073%=      5-min Rain = 0
KRO1 111213Z 22005KT 22/16 A301 RMK A01 T02160164  RH  072%=      5-min Rain = 0
KRO1 111214Z 22005KT 22/16 A301 RMK A01 T02160164  RH  072%=      5-min Rain = 0
KRO1 111215Z 22005KT 22/17 A301 RMK A01 T02170165  RH  072%=      5-min Rain = 0
KRO1 111216Z 21005KT 22/16 A301 RMK A01 T02170164  RH  072%=      5-min Rain = 0
KRO1 111217Z 21005KT 22/16 A301 RMK A01 T02170164  RH  072%=      5-min Rain = 0
KRO1 111218Z 21005KT 22/17 A301 RMK A01 T02180165  RH  072%=      5-min Rain = 0
KRO1 111219Z 21004KT 22/17 A301 RMK A01 T02180165  RH  072%=      5-min Rain = 0
KRO1 111220Z 21004KT 22/17 A301 RMK A01 T02180165  RH  072%=      5-min Rain = 0
KRO1 111221Z 21005KT 22/17 A301 RMK A01 T02180165  RH  072%=      5-min Rain = 0
KRO1 111222Z 21005KT 22/17 A301 RMK A01 T02180165  RH  072%=      5-min Rain = 0
KRO1 111223Z 21005KT 22/17 A301 RMK A01 T02180166  RH  072%=      5-min Rain = 0
KRO1 111224Z 21006KT 22/17 A301 RMK A01 T02180166  RH  072%=      5-min Rain = 0
KRO1 111225Z 22006KT 22/17 A301 RMK A01 T02190167  RH  072%=      5-min Rain = 0
KRO1 111226Z 22006KT 22/17 A301 RMK A01 T02200167  RH  072%=      5-min Rain = 0
KRO1 111227Z 22006KT 22/17 A301 RMK A01 T02220168  RH  071%=      5-min Rain = 0
KRO1 111228Z 22007KT 22/17 A301 RMK A01 T02240168  RH  071%=      5-min Rain = 0
KRO1 111229Z 22007KT 23/17 A301 RMK A01 T02250168  RH  070%=      5-min Rain = 0
KRO1 111230Z 22006KT 23/17 A301 RMK A01 T02270168  RH  069%=      5-min Rain = 0
KRO1 111231Z 22006KT 23/17 A301 RMK A01 T02280168  RH  069%=      5-min Rain = 0
KRO1 111232Z 21006KT 23/17 A301 RMK A01 T02290168  RH  069%=      5-min Rain = 0
KRO1 111233Z 21006KT 23/17 A301 RMK A01 T02300169  RH  069%=      5-min Rain = 0
KRO1 111234Z 21006KT 23/17 A301 RMK A01 T02300169  RH  068%=      5-min Rain = 0
KRO1 111235Z 21006KT 23/17 A301 RMK A01 T02310169  RH  068%=      5-min Rain = 0
KRO1 111236Z 21006KT 23/17 A301 RMK A01 T02320170  RH  068%=      5-min Rain = 0
KRO1 111237Z 21006KT 23/17 A301 RMK A01 T02330170  RH  068%=      5-min Rain = 0
KRO1 111238Z 21007KT 23/17 A301 RMK A01 T02330170  RH  068%=      5-min Rain = 0
KRO1 111239Z 21007KT 23/17 A301 RMK A01 T02340170  RH  067%=      5-min Rain = 0
KRO1 111240Z 21005KT 24/17 A301 RMK A01 T02350171  RH  067%=      5-min Rain = 0
KRO1 111241Z 21006KT 24/17 A301 RMK A01 T02350170  RH  067%=      5-min Rain = 0
KRO1 111242Z 21006KT 24/17 A301 RMK A01 T02360170  RH  066%=      5-min Rain = 0
KRO1 111243Z 21006KT 24/17 A301 RMK A01 T02370171  RH  066%=      5-min Rain = 0
KRO1 111244Z 21007KT 24/17 A301 RMK A01 T02380170  RH  066%=      5-min Rain = 0
KRO1 111245Z 21006KT 24/17 A301 RMK A01 T02380170  RH  066%=      5-min Rain = 0
KRO1 111246Z 21007KT 24/17 A301 RMK A01 T02390170  RH  066%=      5-min Rain = 0
KRO1 111247Z 21007KT 24/17 A301 RMK A01 T02390170  RH  065%=      5-min Rain = 0
KRO1 111248Z 21007KT 24/17 A301 RMK A01 T02400170  RH  065%=      5-min Rain = 0
KRO1 111249Z 21007KT 24/17 A301 RMK A01 T02400170  RH  065%=      5-min Rain = 0
KRO1 111250Z 21007KT 24/17 A301 RMK A01 T02410170  RH  064%=      5-min Rain = 0
KRO1 111251Z 21008KT 24/17 A3011 RMK A01 T02410169  RH  064%=      5-min Rain = 0
KRO1 111252Z 21007KT 24/17 A3011 RMK A01 T02420170  RH  064%=      5-min Rain = 0
KRO1 111253Z 21006KT 24/17 A3011 RMK A01 T02420170  RH  064%=      5-min Rain = 0
KRO1 111254Z 20007KT 24/17 A3011 RMK A01 T02430171  RH  064%=      5-min Rain = 0
KRO1 111255Z 21008KT 24/17 A3011 RMK A01 T02430171  RH  064%=      5-min Rain = 0
KRO1 111256Z 21008KT 24/17 A301 RMK A01 T02440171  RH  064%=      5-min Rain = 0
KRO1 111257Z 21009KT 24/17 A3011 RMK A01 T02440170  RH  063%=      5-min Rain = 0
KRO1 111258Z 21008KT 25/17 A3011 RMK A01 T02450170  RH  063%=      5-min Rain = 0
KRO1 111259Z 21008KT 25/17 A3011 RMK A01 T02450171  RH  063%=      5-min Rain = 0
KRO1 111300Z 21007KT 25/17 A3011 RMK A01 T02450171  RH  063%=      5-min Rain = 0
KRO1 111301Z 21008KT 25/17 A3011 RMK A01 T02450171  RH  064%=      5-min Rain = 0
KRO1 111302Z 21008KT 25/17 A3011 RMK A01 T02450172  RH  064%=      5-min Rain = 0
KRO1 111303Z 21008KT 25/17 A3011 RMK A01 T02460172  RH  063%=      5-min Rain = 0
KRO1 111304Z 21009KT 25/17 A3011 RMK A01 T02460171  RH  063%=      5-min Rain = 0
KRO1 111305Z 21009KT 25/17 A3011 RMK A01 T02460171  RH  063%=      5-min Rain = 0
KRO1 111306Z 21009KT 25/17 A3011 RMK A01 T02470171  RH  063%=      5-min Rain = 0
KRO1 111307Z 22007KT 25/17 A3011 RMK A01 T02470171  RH  063%=      5-min Rain = 0
KRO1 111308Z 21007KT 25/17 A3011 RMK A01 T02470173  RH  063%=      5-min Rain = 0
KRO1 111309Z 21008KT 25/17 A3011 RMK A01 T02470173  RH  063%=      5-min Rain = 0
KRO1 111310Z 21007KT 25/17 A3011 RMK A01 T02480172  RH  063%=      5-min Rain = 0
KRO1 111311Z 21008KT 25/17 A3011 RMK A01 T02490172  RH  063%=      5-min Rain = 0
KRO1 111312Z 21008KT 25/17 A3011 RMK A01 T02490173  RH  062%=      5-min Rain = 0
KRO1 111313Z 20008KT 25/17 A3011 RMK A01 T02500174  RH  063%=      5-min Rain = 0
KRO1 111314Z 21009KT 25/17 A3011 RMK A01 T02510173  RH  062%=      5-min Rain = 0
KRO1 111315Z 21008KT 25/17 A3011 RMK A01 T02520174  RH  062%=      5-min Rain = 0
KRO1 111316Z 21008KT 25/18 A3011 RMK A01 T02520175  RH  062%=      5-min Rain = 0
KRO1 111317Z 21008KT 25/18 A3011 RMK A01 T02530175  RH  062%=      5-min Rain = 0
KRO1 111318Z 20010KT 25/17 A3011 RMK A01 T02540174  RH  061%=      5-min Rain = 0
KRO1 111319Z 20011KT 25/17 A3011 RMK A01 T02540174  RH  061%=      5-min Rain = 0
KRO1 111320Z 20010KT 25/17 A3011 RMK A01 T02540174  RH  061%=      5-min Rain = 0
KRO1 111321Z 20009KT 26/18 A3011 RMK A01 T02550175  RH  061%=      5-min Rain = 0
KRO1 111322Z 20011KT 26/18 A3011 RMK A01 T02550175  RH  061%=      5-min Rain = 0
KRO1 111323Z 20010KT 26/18 A3011 RMK A01 T02570175  RH  060%=      5-min Rain = 0
KRO1 111324Z 20010KT 26/18 A3011 RMK A01 T02560175  RH  061%=      5-min Rain = 0
KRO1 111325Z 20010KT 26/18 A3011 RMK A01 T02570176  RH  061%=      5-min Rain = 0
KRO1 111326Z 20011KT 26/18 A3011 RMK A01 T02580175  RH  060%=      5-min Rain = 0
KRO1 111327Z 20011KT 26/18 A3011 RMK A01 T02580175  RH  060%=      5-min Rain = 0
KRO1 111328Z 20010KT 26/18 A3011 RMK A01 T02580176  RH  060%=      5-min Rain = 0
KRO1 111329Z 20010KT 26/18 A3011 RMK A01 T02580176  RH  060%=      5-min Rain = 0
KRO1 111330Z 21012KT 26/18 A3011 RMK A01 T02580176  RH  060%=      5-min Rain = 0
KRO1 111331Z 21011KT 26/18 A3011 RMK A01 T02580175  RH  060%=      5-min Rain = 0
KRO1 111332Z 20010KT 26/18 A3011 RMK A01 T02590177  RH  060%=      5-min Rain = 0
KRO1 111333Z 20011KT 26/18 A3011 RMK A01 T02600177  RH  060%=      5-min Rain = 0
KRO1 111334Z 20011KT 26/18 A3011 RMK A01 T02610178  RH  060%=      5-min Rain = 0
KRO1 111335Z 20012KT 26/18 A3011 RMK A01 T02620177  RH  060%=      5-min Rain = 0
KRO1 111336Z 20012KT 26/18 A3011 RMK A01 T02620177  RH  060%=      5-min Rain = 0
KRO1 111337Z 20011KT 26/18 A3011 RMK A01 T02610178  RH  060%=      5-min Rain = 0
KRO1 111338Z 20011KT 26/18 A3011 RMK A01 T02610178  RH  060%=      5-min Rain = 0
KRO1 111339Z 20011KT 26/18 A3011 RMK A01 T02620179  RH  060%=      5-min Rain = 0
KRO1 111340Z 21010KT 26/18 A3011 RMK A01 T02620179  RH  060%=      5-min Rain = 0
KRO1 111341Z 21011KT 26/18 A3011 RMK A01 T02630180  RH  060%=      5-min Rain = 0
KRO1 111342Z 21010KT 26/18 A3011 RMK A01 T02640180  RH  060%=      5-min Rain = 0
KRO1 111343Z 20012KT 27/18 A3011 RMK A01 T02650181  RH  060%=      5-min Rain = 0
KRO1 111344Z 20012KT 27/18 A3012 RMK A01 T02650181  RH  060%=      5-min Rain = 0
KRO1 111345Z 20012KT 27/18 A3012 RMK A01 T02660182  RH  060%=      5-min Rain = 0
KRO1 111346Z 20011KT 27/18 A3012 RMK A01 T02670182  RH  059%=      5-min Rain = 0
KRO1 111347Z 20011KT 27/18 A3012 RMK A01 T02670182  RH  060%=      5-min Rain = 0
KRO1 111348Z 21012KT 27/18 A3012 RMK A01 T02670182  RH  060%=      5-min Rain = 0
KRO1 111349Z 20011KT 27/18 A3012 RMK A01 T02680183  RH  060%=      5-min Rain = 0
KRO1 111350Z 21011KT 27/18 A3012 RMK A01 T02690183  RH  059%=      5-min Rain = 0
KRO1 111351Z 20012KT 27/18 A3012 RMK A01 T02690183  RH  059%=      5-min Rain = 0
KRO1 111352Z 21011KT 27/18 A3012 RMK A01 T02690183  RH  059%=      5-min Rain = 0
KRO1 111353Z 20013KT 27/18 A3012 RMK A01 T02690184  RH  059%=      5-min Rain = 0
KRO1 111354Z 20012KT 27/18 A3012 RMK A01 T02700184  RH  059%=      5-min Rain = 0
KRO1 111355Z 20012KT 27/18 A3012 RMK A01 T02700184  RH  059%=      5-min Rain = 0
KRO1 111356Z 21015KT 27/19 A3012 RMK A01 T02700185  RH  060%=      5-min Rain = 0
KRO1 111357Z 20015KT 27/19 A3012 RMK A01 T02700186  RH  060%=      5-min Rain = 0
KRO1 111358Z 21015KT 27/19 A3012 RMK A01 T02700186  RH  060%=      5-min Rain = 0
KRO1 111359Z 20013KT 27/19 A3012 RMK A01 T02710186  RH  060%=      5-min Rain = 0
KRO1 111400Z 20013KT 27/19 A3012 RMK A01 T02710186  RH  060%=      5-min Rain = 0
KRO1 111401Z 20015KT 27/19 A3012 RMK A01 T02710187  RH  060%=      5-min Rain = 0
KRO1 111402Z 20017KT 27/19 A3012 RMK A01 T02710188  RH  060%=      5-min Rain = 0
KRO1 111403Z 20017KT 27/19 A3012 RMK A01 T02730188  RH  060%=      5-min Rain = 0
KRO1 111404Z 21017KT 27/19 A3012 RMK A01 T02740188  RH  060%=      5-min Rain = 0
KRO1 111405Z 21016KT 27/19 A3012 RMK A01 T02740189  RH  060%=      5-min Rain = 0
KRO1 111406Z 21016KT 28/19 A3012 RMK A01 T02750189  RH  060%=      5-min Rain = 0
KRO1 111407Z 21016KT 28/19 A3012 RMK A01 T02750189  RH  059%=      5-min Rain = 0
KRO1 111408Z 21016KT 28/19 A3012 RMK A01 T02750189  RH  060%=      5-min Rain = 0
KRO1 111409Z 21015KT 28/19 A3012 RMK A01 T02750188  RH  059%=      5-min Rain = 0
KRO1 111410Z 21016KT 28/19 A3012 RMK A01 T02750189  RH  059%=      5-min Rain = 0
KRO1 111411Z 21014KT 28/19 A3012 RMK A01 T02760189  RH  059%=      5-min Rain = 0
KRO1 111412Z 21013KT 28/19 A3012 RMK A01 T02760189  RH  059%=      5-min Rain = 0
KRO1 111413Z 21015KT 28/19 A3012 RMK A01 T02760190  RH  059%=      5-min Rain = 0
KRO1 111414Z 20016KT 28/19 A3012 RMK A01 T02770189  RH  059%=      5-min Rain = 0
KRO1 111415Z 21014KT 28/19 A3012 RMK A01 T02770189  RH  059%=      5-min Rain = 0
KRO1 111416Z 21015KT 28/19 A3012 RMK A01 T02770190  RH  059%=      5-min Rain = 0
KRO1 111417Z 21016KT 28/19 A3012 RMK A01 T02780190  RH  059%=      5-min Rain = 0
KRO1 111418Z 21015KT 28/19 A3012 RMK A01 T02780190  RH  059%=      5-min Rain = 0
KRO1 111419Z 20015KT 28/19 A3012 RMK A01 T02780190  RH  059%=      5-min Rain = 0
KRO1 111420Z 21015KT 28/19 A3012 RMK A01 T02780190  RH  059%=      5-min Rain = 0
KRO1 111421Z 21013KT 28/19 A3013 RMK A01 T02790190  RH  059%=      5-min Rain = 0
KRO1 111422Z 22012KT 28/19 A3013 RMK A01 T02800191  RH  058%=      5-min Rain = 0
KRO1 111423Z 21013KT 28/19 A3013 RMK A01 T02810190  RH  058%=      5-min Rain = 0
KRO1 111424Z 20013KT 28/19 A3013 RMK A01 T02810191  RH  058%=      5-min Rain = 0
KRO1 111425Z 20014KT 28/19 A3013 RMK A01 T02810191  RH  058%=      5-min Rain = 0
KRO1 111426Z 20013KT 28/19 A3013 RMK A01 T02820191  RH  058%=      5-min Rain = 0
KRO1 111427Z 20012KT 28/19 A3013 RMK A01 T02830191  RH  058%=      5-min Rain = 0
KRO1 111428Z 21011KT 28/19 A3013 RMK A01 T02840193  RH  058%=      5-min Rain = 0
KRO1 111429Z 20012KT 29/19 A3013 RMK A01 T02850192  RH  057%=      5-min Rain = 0
KRO1 111430Z 20012KT 28/19 A3013 RMK A01 T02840192  RH  057%=      5-min Rain = 0
KRO1 111431Z 21010KT 29/19 A3013 RMK A01 T02860194  RH  057%=      5-min Rain = 0
KRO1 111432Z 21013KT 29/19 A3013 RMK A01 T02890192  RH  056%=      5-min Rain = 0
KRO1 111433Z 21015KT 29/19 A3013 RMK A01 T02880192  RH  056%=      5-min Rain = 0
KRO1 111434Z 21013KT 29/19 A3013 RMK A01 T02860191  RH  056%=      5-min Rain = 0
KRO1 111435Z 21012KT 29/19 A3013 RMK A01 T02850192  RH  057%=      5-min Rain = 0
KRO1 111436Z 21013KT 29/19 A3013 RMK A01 T02870192  RH  056%=      5-min Rain = 0
KRO1 111437Z 22013KT 29/19 A3013 RMK A01 T02860191  RH  056%=      5-min Rain = 0
KRO1 111438Z 22013KT 29/19 A3013 RMK A01 T02850191  RH  057%=      5-min Rain = 0
KRO1 111439Z 22013KT 28/19 A3013 RMK A01 T02840191  RH  057%=      5-min Rain = 0
KRO1 111440Z 22013KT 29/19 A3013 RMK A01 T02860192  RH  057%=      5-min Rain = 0
KRO1 111441Z 21012KT 29/19 A3013 RMK A01 T02870192  RH  056%=      5-min Rain = 0
KRO1 111442Z 21012KT 29/19 A3013 RMK A01 T02890192  RH  056%=      5-min Rain = 0
KRO1 111443Z 21014KT 29/19 A3013 RMK A01 T02890192  RH  056%=      5-min Rain = 0
KRO1 111444Z 21014KT 29/19 A3013 RMK A01 T02890192  RH  056%=      5-min Rain = 0
KRO1 111445Z 21013KT 29/19 A3013 RMK A01 T02890191  RH  056%=      5-min Rain = 0
KRO1 111446Z 21013KT 29/19 A3013 RMK A01 T02880192  RH  056%=      5-min Rain = 0
KRO1 111447Z 21013KT 29/19 A3013 RMK A01 T02880191  RH  056%=      5-min Rain = 0
KRO1 111448Z 21013KT 29/19 A3013 RMK A01 T02880191  RH  056%=      5-min Rain = 0
KRO1 111449Z 20013KT 29/19 A3013 RMK A01 T02880191  RH  056%=      5-min Rain = 0
KRO1 111450Z 20012KT 29/19 A3013 RMK A01 T02880191  RH  056%=      5-min Rain = 0
KRO1 111451Z 22012KT 29/19 A3013 RMK A01 T02890192  RH  056%=      5-min Rain = 0
KRO1 111452Z 21012KT 29/19 A3013 RMK A01 T02890191  RH  056%=      5-min Rain = 0
KRO1 111453Z 19014KT 29/19 A3013 RMK A01 T02900191  RH  055%=      5-min Rain = 0
KRO1 111454Z 19015KT 29/19 A3013 RMK A01 T02920190  RH  054%=      5-min Rain = 0
KRO1 111455Z 19015KT 29/19 A3013 RMK A01 T02900189  RH  055%=      5-min Rain = 0
KRO1 111456Z 20015KT 29/19 A3013 RMK A01 T02890190  RH  055%=      5-min Rain = 0
KRO1 111457Z 20015KT 29/19 A3013 RMK A01 T02880189  RH  055%=      5-min Rain = 0
KRO1 111458Z 20014KT 29/19 A3013 RMK A01 T02880189  RH  055%=      5-min Rain = 0
KRO1 111459Z 20014KT 29/19 A3013 RMK A01 T02880190  RH  055%=      5-min Rain = 0
KRO1 111500Z 20013KT 29/19 A3013 RMK A01 T02890191  RH  055%=      5-min Rain = 0
KRO1 111501Z 20014KT 29/19 A3013 RMK A01 T02900190  RH  055%=      5-min Rain = 0
KRO1 111502Z 20012KT 29/19 A3013 RMK A01 T02910191  RH  055%=      5-min Rain = 0
KRO1 111503Z 20012KT 29/19 A3013 RMK A01 T02910191  RH  055%=      5-min Rain = 0
KRO1 111504Z 20011KT 29/19 A3013 RMK A01 T02910191  RH  055%=      5-min Rain = 0
KRO1 111505Z 19011KT 29/19 A3013 RMK A01 T02910191  RH  055%=      5-min Rain = 0
KRO1 111506Z 21012KT 29/19 A3013 RMK A01 T02920191  RH  055%=      5-min Rain = 0
KRO1 111507Z 20012KT 29/19 A3013 RMK A01 T02930192  RH  054%=      5-min Rain = 0
KRO1 111508Z 19012KT 29/19 A3013 RMK A01 T02930191  RH  054%=      5-min Rain = 0
KRO1 111509Z 19011KT 29/19 A3013 RMK A01 T02930191  RH  054%=      5-min Rain = 0
KRO1 111510Z 20011KT 29/19 A3013 RMK A01 T02940193  RH  054%=      5-min Rain = 0
KRO1 111511Z 19013KT 30/19 A3013 RMK A01 T02960193  RH  054%=      5-min Rain = 0
KRO1 111512Z 20012KT 30/19 A3013 RMK A01 T02980192  RH  053%=      5-min Rain = 0
KRO1 111513Z 19012KT 30/19 A3013 RMK A01 T02960192  RH  053%=      5-min Rain = 0
KRO1 111514Z 20014KT 30/19 A3012 RMK A01 T02980190  RH  052%=      5-min Rain = 0
KRO1 111515Z 21013KT 30/19 A3013 RMK A01 T02990190  RH  052%=      5-min Rain = 0
KRO1 111516Z 22014KT 30/19 A3013 RMK A01 T02970190  RH  052%=      5-min Rain = 0
KRO1 111517Z 21013KT 30/19 A3013 RMK A01 T02970189  RH  053%=      5-min Rain = 0
KRO1 111518Z 20010KT 30/19 A3013 RMK A01 T02980192  RH  053%=      5-min Rain = 0
KRO1 111519Z 21014KT 30/19 A3013 RMK A01 T03000192  RH  052%=      5-min Rain = 0
KRO1 111520Z 21013KT 30/19 A3013 RMK A01 T03010190  RH  052%=      5-min Rain = 0
KRO1 111521Z 22013KT 30/19 A3013 RMK A01 T02990190  RH  052%=      5-min Rain = 0
KRO1 111522Z 21012KT 30/19 A3013 RMK A01 T02970190  RH  053%=      5-min Rain = 0
KRO1 111523Z 22016KT 30/19 A3013 RMK A01 T02970190  RH  053%=      5-min Rain = 0
KRO1 111524Z 21013KT 30/19 A3013 RMK A01 T02980190  RH  052%=      5-min Rain = 0
KRO1 111525Z 21012G17KT 30/19 A3013 RMK A01 T02980190  RH  052%=      5-min Rain = 0
KRO1 111526Z 21013KT 30/19 A3013 RMK A01 T03000190  RH  052%=      5-min Rain = 0
KRO1 111527Z 20013KT 30/19 A3012 RMK A01 T03010189  RH  051%=      5-min Rain = 0
KRO1 111528Z 19012KT 30/19 A3013 RMK A01 T03020190  RH  051%=      5-min Rain = 0
KRO1 111529Z 19013KT 30/19 A3012 RMK A01 T03020190  RH  051%=      5-min Rain = 0
KRO1 111530Z 20011KT 30/19 A3012 RMK A01 T03020189  RH  051%=      5-min Rain = 0
KRO1 111531Z 21013G18KT 30/19 A3012 RMK A01 T03040189  RH  050%=      5-min Rain = 0
KRO1 111532Z 21015KT 31/19 A3012 RMK A01 T03060187  RH  049%=      5-min Rain = 0
KRO1 111533Z 22015G20KT 31/19 A3012 RMK A01 T03050185  RH  049%=      5-min Rain = 0
KRO1 111534Z 21015KT 31/19 A3012 RMK A01 T03050188  RH  050%=      5-min Rain = 0
KRO1 111535Z 22016KT 31/19 A3012 RMK A01 T03050186  RH  049%=      5-min Rain = 0
KRO1 111536Z 21016KT 31/19 A3012 RMK A01 T03050188  RH  050%=      5-min Rain = 0
KRO1 111537Z 21017KT 31/19 A3012 RMK A01 T03050187  RH  049%=      5-min Rain = 0
KRO1 111538Z 21015KT 30/19 A3012 RMK A01 T03040189  RH  050%=      5-min Rain = 0
KRO1 111539Z 21012KT 30/19 A3012 RMK A01 T03040189  RH  050%=      5-min Rain = 0
KRO1 111540Z 22014KT 30/19 A3012 RMK A01 T03040186  RH  049%=      5-min Rain = 0
KRO1 111541Z 21014G19KT 31/19 A3012 RMK A01 T03050187  RH  049%=      5-min Rain = 0
KRO1 111542Z 21013KT 31/19 A3012 RMK A01 T03080187  RH  049%=      5-min Rain = 0
KRO1 111543Z 21015KT 31/19 A3012 RMK A01 T03090187  RH  048%=      5-min Rain = 0
KRO1 111544Z 22014KT 31/19 A3012 RMK A01 T03080186  RH  048%=      5-min Rain = 0
KRO1 111545Z 22014KT 31/19 A3012 RMK A01 T03070186  RH  048%=      5-min Rain = 0
KRO1 111546Z 21014KT 31/19 A3012 RMK A01 T03070188  RH  049%=      5-min Rain = 0
KRO1 111547Z 20012KT 31/19 A3012 RMK A01 T03070188  RH  049%=      5-min Rain = 0
KRO1 111548Z 22013KT 31/19 A3012 RMK A01 T03080188  RH  049%=      5-min Rain = 0
KRO1 111549Z 22013KT 31/19 A3012 RMK A01 T03090185  RH  048%=      5-min Rain = 0
KRO1 111550Z 22014KT 31/19 A3012 RMK A01 T03080188  RH  049%=      5-min Rain = 0
KRO1 111551Z 20012KT 31/19 A3012 RMK A01 T03080188  RH  049%=      5-min Rain = 0
KRO1 111552Z 21010KT 31/19 A3012 RMK A01 T03090190  RH  049%=      5-min Rain = 0
KRO1 111553Z 22013KT 31/19 A3012 RMK A01 T03090190  RH  049%=      5-min Rain = 0
KRO1 111554Z 23011KT 31/19 A3012 RMK A01 T03110189  RH  048%=      5-min Rain = 0
KRO1 111555Z 22012KT 31/19 A3012 RMK A01 T03110188  RH  048%=      5-min Rain = 0
KRO1 111556Z 22013KT 31/19 A3012 RMK A01 T03090187  RH  048%=      5-min Rain = 0
KRO1 111557Z 21012KT 31/19 A3012 RMK A01 T03100189  RH  049%=      5-min Rain = 0
KRO1 111558Z 20012KT 31/19 A3012 RMK A01 T03130189  RH  048%=      5-min Rain = 0
KRO1 111559Z 20011KT 31/19 A3012 RMK A01 T03130190  RH  048%=      5-min Rain = 0
KRO1 111600Z 20014KT 31/19 A3012 RMK A01 T03120189  RH  048%=      5-min Rain = 0
KRO1 111601Z 19011KT 31/19 A3012 RMK A01 T03130187  RH  047%=      5-min Rain = 0
KRO1 111602Z 20012KT 31/19 A3012 RMK A01 T03130187  RH  047%=      5-min Rain = 0
KRO1 111603Z 21012KT 31/19 A3012 RMK A01 T03120188  RH  047%=      5-min Rain = 0
KRO1 111604Z 21011KT 31/19 A3012 RMK A01 T03140185  RH  046%=      5-min Rain = 0
KRO1 111605Z 21013KT 32/19 A3012 RMK A01 T03150185  RH  046%=      5-min Rain = 0
KRO1 111606Z 20012KT 32/19 A3012 RMK A01 T03150187  RH  047%=      5-min Rain = 0
KRO1 111607Z 20009KT 31/19 A3012 RMK A01 T03130185  RH  047%=      5-min Rain = 0
KRO1 111608Z 20011KT 31/19 A3012 RMK A01 T03120185  RH  047%=      5-min Rain = 0
KRO1 111609Z 20010KT 31/19 A3012 RMK A01 T03120187  RH  047%=      5-min Rain = 0
KRO1 111610Z 18008KT 31/19 A3012 RMK A01 T03130187  RH  047%=      5-min Rain = 0
KRO1 111611Z 21009KT 32/19 A3012 RMK A01 T03170188  RH  046%=      5-min Rain = 0
KRO1 111612Z 21011KT 32/18 A3012 RMK A01 T03170184  RH  045%=      5-min Rain = 0
KRO1 111613Z 20010KT 32/19 A3012 RMK A01 T03160186  RH  046%=      5-min Rain = 0
KRO1 111614Z 20011KT 32/19 A3012 RMK A01 T03150185  RH  046%=      5-min Rain = 0
KRO1 111615Z 22012KT 32/18 A3012 RMK A01 T03150181  RH  045%=      5-min Rain = 0
KRO1 111616Z 22013KT 32/18 A3012 RMK A01 T03170184  RH  045%=      5-min Rain = 0
KRO1 111617Z 22011KT 32/18 A3012 RMK A01 T03170184  RH  045%=      5-min Rain = 0
KRO1 111618Z 21009KT 32/18 A3012 RMK A01 T03160183  RH  045%=      5-min Rain = 0
KRO1 111619Z 19009KT 32/18 A3012 RMK A01 T03160184  RH  046%=      5-min Rain = 0
KRO1 111620Z 19009KT 32/19 A3012 RMK A01 T03190187  RH  045%=      5-min Rain = 0
KRO1 111621Z 21007KT 32/19 A3011 RMK A01 T03220185  RH  044%=      5-min Rain = 0
KRO1 111622Z 21009KT 32/19 A3011 RMK A01 T03220186  RH  044%=      5-min Rain = 0
KRO1 111623Z 22008KT 32/19 A3011 RMK A01 T03220187  RH  045%=      5-min Rain = 0
KRO1 111624Z 22009KT 32/19 A3011 RMK A01 T03220186  RH  044%=      5-min Rain = 0
KRO1 111625Z 22011KT 32/18 A3011 RMK A01 T03210184  RH  044%=      5-min Rain = 0
KRO1 111626Z 22010KT 32/18 A3011 RMK A01 T03200184  RH  045%=      5-min Rain = 0
KRO1 111627Z 23009KT 32/19 A3011 RMK A01 T03200185  RH  045%=      5-min Rain = 0
KRO1 111628Z 22010KT 32/19 A3011 RMK A01 T03210187  RH  045%=      5-min Rain = 0
KRO1 111629Z 19010KT 32/19 A3011 RMK A01 T03240185  RH  044%=      5-min Rain = 0
KRO1 111630Z 20010KT 32/19 A3011 RMK A01 T03220185  RH  044%=      5-min Rain = 0
KRO1 111631Z 21008KT 32/19 A3011 RMK A01 T03240185  RH  044%=      5-min Rain = 0
KRO1 111632Z 21007KT 32/19 A3011 RMK A01 T03240185  RH  044%=      5-min Rain = 0
KRO1 111633Z 23010KT 33/18 A3011 RMK A01 T03260184  RH  043%=      5-min Rain = 0
KRO1 111634Z 20010KT 33/19 A3011 RMK A01 T03250185  RH  043%=      5-min Rain = 0
KRO1 111635Z 19011KT 33/18 A3011 RMK A01 T03250184  RH  043%=      5-min Rain = 0
KRO1 111636Z 19012KT 32/18 A3011 RMK A01 T03220182  RH  043%=      5-min Rain = 0
KRO1 111637Z 19010KT 32/18 A3011 RMK A01 T03210182  RH  044%=      5-min Rain = 0
KRO1 111638Z 20006KT 32/18 A3011 RMK A01 T03200180  RH  043%=      5-min Rain = 0
KRO1 111639Z 20004KT 32/18 A3011 RMK A01 T03200181  RH  044%=      5-min Rain = 0
KRO1 111640Z 18007KT 32/18 A3011 RMK A01 T03230183  RH  043%=      5-min Rain = 0
KRO1 111641Z 20011KT 33/18 A3011 RMK A01 T03250178  RH  041%=      5-min Rain = 0
KRO1 111642Z 20010KT 33/18 A3011 RMK A01 T03260176  RH  041%=      5-min Rain = 0
KRO1 111643Z 19009KT 33/18 A3011 RMK A01 T03250178  RH  041%=      5-min Rain = 0
KRO1 111644Z 19008KT 32/18 A3011 RMK A01 T03240178  RH  042%=      5-min Rain = 0
KRO1 111645Z 19007KT 32/18 A3011 RMK A01 T03230180  RH  043%=      5-min Rain = 0
KRO1 111646Z 15004KT 32/18 A3011 RMK A01 T03240179  RH  042%=      5-min Rain = 0
KRO1 111647Z 18006KT 32/18 A3011 RMK A01 T03240179  RH  042%=      5-min Rain = 0
KRO1 111648Z 18006KT 32/18 A3011 RMK A01 T03230179  RH  042%=      5-min Rain = 0
KRO1 111649Z 18008KT 32/18 A3011 RMK A01 T03230182  RH  043%=      5-min Rain = 0
KRO1 111650Z 20008KT 32/19 A3011 RMK A01 T03220187  RH  045%=      5-min Rain = 0
KRO1 111651Z 20007KT 32/19 A3011 RMK A01 T03230187  RH  044%=      5-min Rain = 0
KRO1 111652Z 18008KT 33/18 A3011 RMK A01 T03260180  RH  042%=      5-min Rain = 0
KRO1 111653Z 16009KT 33/17 A3011 RMK A01 T03270173  RH  040%=      5-min Rain = 0
KRO1 111654Z 13007KT 33/18 A3011 RMK A01 T03270176  RH  041%=      5-min Rain = 0
KRO1 111655Z 13007KT 33/18 A3011 RMK A01 T03250180  RH  042%=      5-min Rain = 0
KRO1 111656Z 16007KT 33/18 A3011 RMK A01 T03270179  RH  041%=      5-min Rain = 0
KRO1 111657Z 17007KT 33/18 A3011 RMK A01 T03290180  RH  041%=      5-min Rain = 0
KRO1 111658Z 17006G11KT 33/18 A3011 RMK A01 T03280180  RH  041%=      5-min Rain = 0
KRO1 111659Z 18009KT 33/18 A3011 RMK A01 T03270184  RH  043%=      5-min Rain = 0
KRO1 111700Z 18008KT 33/18 A3011 RMK A01 T03280177  RH  041%=      5-min Rain = 0
KRO1 111701Z 21011KT 33/18 A3011 RMK A01 T03300181  RH  041%=      5-min Rain = 0
KRO1 111702Z 20008KT 33/18 A3011 RMK A01 T03300184  RH  042%=      5-min Rain = 0
KRO1 111703Z 19009KT 33/19 A3011 RMK A01 T03290185  RH  043%=      5-min Rain = 0
KRO1 111704Z 18009KT 33/18 A3011 RMK A01 T03310176  RH  040%=      5-min Rain = 0
KRO1 111705Z 20007KT 33/17 A3011 RMK A01 T03290169  RH  038%=      5-min Rain = 0
KRO1 111706Z 19009G14KT 33/17 A3011 RMK A01 T03280171  RH  039%=      5-min Rain = 0
KRO1 111707Z 20007KT 33/18 A3011 RMK A01 T03290180  RH  041%=      5-min Rain = 0
KRO1 111708Z 21009KT 33/18 A3011 RMK A01 T03290183  RH  042%=      5-min Rain = 0
KRO1 111709Z 21014G19KT 33/18 A301 RMK A01 T03300182  RH  042%=      5-min Rain = 0
KRO1 111710Z 19013KT 34/18 A3011 RMK A01 T03360175  RH  038%=      5-min Rain = 0
KRO1 111711Z 18011KT 34/17 A3011 RMK A01 T03370173  RH  038%=      5-min Rain = 0
KRO1 111712Z 18009KT 33/17 A3011 RMK A01 T03320168  RH  038%=      5-min Rain = 0
KRO1 111713Z 18005KT 33/17 A3011 RMK A01 T03270165  RH  038%=      5-min Rain = 0
KRO1 111714Z 20004KT 33/17 A3011 RMK A01 T03250169  RH  039%=      5-min Rain = 0
KRO1 111715Z 21009G15KT 33/17 A3011 RMK A01 T03280173  RH  039%=      5-min Rain = 0
KRO1 111716Z 21013KT 33/17 A3011 RMK A01 T03330172  RH  038%=      5-min Rain = 0
KRO1 111717Z 22011KT 33/17 A3011 RMK A01 T03330171  RH  038%=      5-min Rain = 0
KRO1 111718Z 22008KT 33/17 A301 RMK A01 T03300171  RH  039%=      5-min Rain = 0
KRO1 111719Z 20010KT 33/17 A301 RMK A01 T03300174  RH  039%=      5-min Rain = 0
KRO1 111720Z 19011KT 33/17 A301 RMK A01 T03330174  RH  039%=      5-min Rain = 0
KRO1 111721Z 19010KT 33/18 A3011 RMK A01 T03330175  RH  039%=      5-min Rain = 0
KRO1 111722Z 19009G14KT 33/17 A301 RMK A01 T03330173  RH  038%=      5-min Rain = 0
KRO1 111723Z 20007KT 34/18 A3011 RMK A01 T03350176  RH  039%=      5-min Rain = 0
KRO1 111724Z 17010KT 34/18 A3011 RMK A01 T03390177  RH  038%=      5-min Rain = 0
KRO1 111725Z 17011KT 34/17 A3011 RMK A01 T03380173  RH  037%=      5-min Rain = 0
KRO1 111726Z 18007KT 34/17 A3011 RMK A01 T03370167  RH  036%=      5-min Rain = 0
KRO1 111727Z 19006KT 34/17 A301 RMK A01 T03360168  RH  037%=      5-min Rain = 0
KRO1 111728Z 13009KT 34/17 A301 RMK A01 T03360169  RH  037%=      5-min Rain = 0
KRO1 111729Z 12006KT 34/17 A301 RMK A01 T03360166  RH  036%=      5-min Rain = 0
KRO1 111730Z 16014KT 34/17 A301 RMK A01 T03350166  RH  036%=      5-min Rain = 0
KRO1 111731Z 15015KT 34/16 A301 RMK A01 T03400161  RH  034%=      5-min Rain = 0
KRO1 111732Z 14014KT 34/16 A301 RMK A01 T03410160  RH  034%=      5-min Rain = 0
KRO1 111733Z 15010KT 34/16 A301 RMK A01 T03390159  RH  034%=      5-min Rain = 0
KRO1 111734Z 17007KT 34/16 A301 RMK A01 T03390161  RH  035%=      5-min Rain = 0
KRO1 111735Z 19012KT 34/16 A301 RMK A01 T03400158  RH  034%=      5-min Rain = 0
KRO1 111736Z 19009KT 34/16 A301 RMK A01 T03380158  RH  034%=      5-min Rain = 0
KRO1 111737Z 20012KT 34/16 A301 RMK A01 T03360161  RH  035%=      5-min Rain = 0
KRO1 111738Z 19010KT 34/16 A301 RMK A01 T03370163  RH  035%=      5-min Rain = 0
KRO1 111739Z 21011KT 34/17 A301 RMK A01 T03370167  RH  036%=      5-min Rain = 0
KRO1 111740Z 20010KT 34/17 A301 RMK A01 T03390169  RH  036%=      5-min Rain = 0
KRO1 111741Z 18013KT 34/17 A301 RMK A01 T03420168  RH  036%=      5-min Rain = 0
KRO1 111742Z 17015KT 34/16 A301 RMK A01 T03420157  RH  033%=      5-min Rain = 0
KRO1 111743Z 17015KT 34/16 A301 RMK A01 T03400155  RH  033%=      5-min Rain = 0
KRO1 111744Z 18011G16KT 34/15 A301 RMK A01 T03410153  RH  032%=      5-min Rain = 0
KRO1 111745Z 16009KT 34/15 A301 RMK A01 T03400154  RH  033%=      5-min Rain = 0
KRO1 111746Z 18010KT 34/16 A301 RMK A01 T03380156  RH  034%=      5-min Rain = 0
KRO1 111747Z 17011KT 34/16 A3009 RMK A01 T03400158  RH  034%=      5-min Rain = 0
KRO1 111748Z 18011KT 34/16 A3009 RMK A01 T03400159  RH  034%=      5-min Rain = 0
KRO1 111749Z 17010KT 34/16 A3009 RMK A01 T03390159  RH  034%=      5-min Rain = 0
KRO1 111750Z 16015KT 34/16 A3009 RMK A01 T03420157  RH  033%=      5-min Rain = 0
KRO1 111751Z 17016KT 35/16 A3009 RMK A01 T03450156  RH  032%=      5-min Rain = 0
KRO1 111752Z 17014KT 35/16 A3009 RMK A01 T03460159  RH  033%=      5-min Rain = 0
KRO1 111753Z 18017KT 35/16 A3009 RMK A01 T03500161  RH  032%=      5-min Rain = 0
KRO1 111754Z 17015KT 35/16 A3009 RMK A01 T03500160  RH  032%=      5-min Rain = 0
KRO1 111755Z 16010KT 35/16 A3009 RMK A01 T03460157  RH  032%=      5-min Rain = 0
KRO1 111756Z 16010G16KT 34/16 A3009 RMK A01 T03430158  RH  033%=      5-min Rain = 0
KRO1 111757Z 17011KT 34/16 A3009 RMK A01 T03420157  RH  033%=      5-min Rain = 0
KRO1 111758Z 16008KT 34/16 A3009 RMK A01 T03410158  RH  033%=      5-min Rain = 0
KRO1 111759Z 13012KT 34/16 A3009 RMK A01 T03440162  RH  034%=      5-min Rain = 0
KRO1 111800Z 13011KT 35/16 A3009 RMK A01 T03450161  RH  033%=      5-min Rain = 0
KRO1 111801Z 15011G17KT 34/16 A3009 RMK A01 T03420162  RH  034%=      5-min Rain = 0
KRO1 111802Z 17015KT 34/17 A3009 RMK A01 T03440166  RH  035%=      5-min Rain = 0
KRO1 111803Z 15015KT 35/17 A3009 RMK A01 T03460166  RH  034%=      5-min Rain = 0
KRO1 111804Z 14012KT 35/17 A3009 RMK A01 T03470166  RH  034%=      5-min Rain = 0
KRO1 111805Z 16012KT 35/17 A3009 RMK A01 T03470168  RH  034%=      5-min Rain = 0
KRO1 111806Z 16010KT 35/17 A3009 RMK A01 T03490170  RH  035%=      5-min Rain = 0
KRO1 111807Z 14007KT 35/17 A3009 RMK A01 T03460167  RH  035%=      5-min Rain = 0
KRO1 111808Z 13009KT 34/17 A3009 RMK A01 T03420166  RH  035%=      5-min Rain = 0
KRO1 111809Z 15006KT 34/17 A3009 RMK A01 T03390167  RH  036%=      5-min Rain = 0
KRO1 111810Z 16007KT 34/17 A3009 RMK A01 T03380168  RH  036%=      5-min Rain = 0
KRO1 111811Z 15009KT 34/17 A3009 RMK A01 T03400169  RH  036%=      5-min Rain = 0
KRO1 111812Z 14007KT 34/17 A3009 RMK A01 T03400169  RH  036%=      5-min Rain = 0
KRO1 111813Z 18008G13KT 34/17 A3009 RMK A01 T03400170  RH  036%=      5-min Rain = 0
KRO1 111814Z 19011KT 34/17 A3009 RMK A01 T03420166  RH  035%=      5-min Rain = 0
KRO1 111815Z 19010KT 34/17 A3009 RMK A01 T03420166  RH  035%=      5-min Rain = 0
KRO1 111816Z 16008KT 34/17 A3009 RMK A01 T03440166  RH  035%=      5-min Rain = 0
KRO1 111817Z 14010KT 35/17 A3009 RMK A01 T03480169  RH  034%=      5-min Rain = 0
KRO1 111818Z 15009KT 35/17 A3009 RMK A01 T03510165  RH  033%=      5-min Rain = 0
KRO1 111819Z 18009KT 35/17 A3009 RMK A01 T03500167  RH  034%=      5-min Rain = 0
KRO1 111820Z 17009KT 35/17 A3008 RMK A01 T03520168  RH  034%=      5-min Rain = 0
KRO1 111821Z 15011KT 35/17 A3008 RMK A01 T03520166  RH  033%=      5-min Rain = 0
KRO1 111822Z 13012KT 35/16 A3008 RMK A01 T03510164  RH  033%=      5-min Rain = 0
KRO1 111823Z 14013KT 35/16 A3008 RMK A01 T03460163  RH  034%=      5-min Rain = 0
KRO1 111824Z 18012KT 35/16 A3008 RMK A01 T03460163  RH  034%=      5-min Rain = 0
KRO1 111825Z 19016KT 35/16 A3008 RMK A01 T03470161  RH  033%=      5-min Rain = 0
KRO1 111826Z 19014KT 35/16 A3008 RMK A01 T03500162  RH  033%=      5-min Rain = 0
KRO1 111827Z 17013KT 35/16 A3008 RMK A01 T03490163  RH  033%=      5-min Rain = 0
KRO1 111828Z 17016KT 35/16 A3008 RMK A01 T03460161  RH  033%=      5-min Rain = 0
KRO1 111829Z 17011KT 34/16 A3008 RMK A01 T03430162  RH  034%=      5-min Rain = 0
KRO1 111830Z 17010G18KT 34/16 A3008 RMK A01 T03370161  RH  035%=      5-min Rain = 0
KRO1 111831Z 18014KT 34/16 A3008 RMK A01 T03370163  RH  035%=      5-min Rain = 0
KRO1 111832Z 18014KT 34/16 A3008 RMK A01 T03400162  RH  035%=      5-min Rain = 0
KRO1 111833Z 19014KT 35/16 A3008 RMK A01 T03450163  RH  034%=      5-min Rain = 0
KRO1 111834Z 18011KT 35/16 A3008 RMK A01 T03460162  RH  034%=      5-min Rain = 0
KRO1 111835Z 16011KT 35/16 A3008 RMK A01 T03480162  RH  033%=      5-min Rain = 0
KRO1 111836Z 15012KT 35/16 A3008 RMK A01 T03470163  RH  033%=      5-min Rain = 0
KRO1 111837Z 16015G20KT 35/17 A3008 RMK A01 T03470165  RH  034%=      5-min Rain = 0
KRO1 111838Z 16009KT 34/16 A3008 RMK A01 T03440163  RH  034%=      5-min Rain = 0
KRO1 111839Z 18009KT 34/17 A3007 RMK A01 T03420165  RH  035%=      5-min Rain = 0
KRO1 111840Z 17010KT 35/17 A3007 RMK A01 T03450167  RH  035%=      5-min Rain = 0
KRO1 111841Z 17013KT 35/17 A3007 RMK A01 T03500168  RH  034%=      5-min Rain = 0
KRO1 111842Z 16012KT 35/17 A3007 RMK A01 T03530166  RH  033%=      5-min Rain = 0
KRO1 111843Z 15010KT 35/17 A3007 RMK A01 T03510166  RH  033%=      5-min Rain = 0
KRO1 111844Z 12011KT 35/17 A3007 RMK A01 T03520166  RH  033%=      5-min Rain = 0
KRO1 111845Z 11010KT 35/16 A3007 RMK A01 T03470164  RH  034%=      5-min Rain = 0
KRO1 111846Z 12014KT 34/16 A3007 RMK A01 T03430160  RH  034%=      5-min Rain = 0
KRO1 111847Z 15010G15KT 34/16 A3007 RMK A01 T03420158  RH  033%=      5-min Rain = 0
KRO1 111848Z 16013KT 35/15 A3007 RMK A01 T03460150  RH  031%=      5-min Rain = 0
KRO1 111849Z 17014G19KT 35/15 A3007 RMK A01 T03490150  RH  030%=      5-min Rain = 0
KRO1 111850Z 18014KT 35/16 A3007 RMK A01 T03490155  RH  031%=      5-min Rain = 0
KRO1 111851Z 18015KT 35/15 A3007 RMK A01 T03490154  RH  031%=      5-min Rain = 0
KRO1 111852Z 18012KT 35/16 A3007 RMK A01 T03500155  RH  031%=      5-min Rain = 0
KRO1 111853Z 16011KT 35/16 A3007 RMK A01 T03480156  RH  032%=      5-min Rain = 0
KRO1 111854Z 17008KT 35/15 A3007 RMK A01 T03460154  RH  032%=      5-min Rain = 0
KRO1 111855Z 16005KT 34/15 A3007 RMK A01 T03420153  RH  032%=      5-min Rain = 0
KRO1 111856Z 15004KT 34/15 A3007 RMK A01 T03400152  RH  032%=      5-min Rain = 0
KRO1 111857Z 15010G15KT 34/15 A3007 RMK A01 T03400153  RH  033%=      5-min Rain = 0
KRO1 111858Z 16016KT 34/15 A3007 RMK A01 T03430152  RH  032%=      5-min Rain = 0
KRO1 111859Z 16014KT 35/15 A3007 RMK A01 T03480151  RH  031%=      5-min Rain = 0
KRO1 111900Z 15010KT 35/15 A3007 RMK A01 T03500148  RH  030%=      5-min Rain = 0
KRO1 111901Z 14013KT 35/15 A3007 RMK A01 T03480148  RH  030%=      5-min Rain = 0
KRO1 111902Z 17015KT 35/15 A3007 RMK A01 T03500151  RH  031%=      5-min Rain = 0
KRO1 111903Z 16015KT 35/15 A3007 RMK A01 T03530154  RH  030%=      5-min Rain = 0
KRO1 111904Z 16014KT 35/15 A3007 RMK A01 T03530152  RH  030%=      5-min Rain = 0
KRO1 111905Z 15010KT 35/15 A3007 RMK A01 T03500150  RH  030%=      5-min Rain = 0
KRO1 111906Z 17012G17KT 35/15 A3007 RMK A01 T03510152  RH  031%=      5-min Rain = 0
KRO1 111907Z 17012KT 35/15 A3007 RMK A01 T03520148  RH  030%=      5-min Rain = 0
KRO1 111908Z 15009G14KT 35/15 A3007 RMK A01 T03490147  RH  030%=      5-min Rain = 0
KRO1 111909Z 17010G17KT 35/15 A3006 RMK A01 T03490145  RH  029%=      5-min Rain = 0
KRO1 111910Z 17005G10KT 35/14 A3006 RMK A01 T03470140  RH  029%=      5-min Rain = 0
KRO1 111911Z 19010G15KT 35/15 A3006 RMK A01 T03450145  RH  030%=      5-min Rain = 0
KRO1 111912Z 19015KT 35/15 A3006 RMK A01 T03490147  RH  030%=      5-min Rain = 0
KRO1 111913Z 20014KT 36/15 A3006 RMK A01 T03570147  RH  029%=      5-min Rain = 0
KRO1 111914Z 18012G22KT 36/15 A3006 RMK A01 T03580145  RH  028%=      5-min Rain = 0
KRO1 111915Z 14018KT 36/15 A3006 RMK A01 T03560151  RH  029%=      5-min Rain = 0
KRO1 111916Z 14015KT 35/15 A3006 RMK A01 T03530148  RH  029%=      5-min Rain = 0
KRO1 111917Z 15013KT 35/15 A3006 RMK A01 T03500148  RH  030%=      5-min Rain = 0
KRO1 111918Z 15012KT 35/15 A3006 RMK A01 T03490147  RH  030%=      5-min Rain = 0
KRO1 111919Z 16009KT 35/15 A3006 RMK A01 T03490148  RH  030%=      5-min Rain = 0
KRO1 111920Z 17008KT 35/15 A3006 RMK A01 T03490148  RH  030%=      5-min Rain = 0
KRO1 111921Z 19009KT 35/15 A3006 RMK A01 T03480149  RH  030%=      5-min Rain = 0
KRO1 111922Z 19009KT 35/15 A3006 RMK A01 T03480150  RH  031%=      5-min Rain = 0
KRO1 111923Z 17009KT 35/15 A3006 RMK A01 T03490148  RH  030%=      5-min Rain = 0
KRO1 111924Z 17014KT 35/15 A3006 RMK A01 T03520153  RH  030%=      5-min Rain = 0
KRO1 111925Z 17019KT 36/15 A3006 RMK A01 T03550153  RH  030%=      5-min Rain = 0
KRO1 111926Z 17020KT 35/15 A3006 RMK A01 T03510151  RH  030%=      5-min Rain = 0
KRO1 111927Z 17017KT 35/15 A3006 RMK A01 T03470149  RH  031%=      5-min Rain = 0
KRO1 111928Z 16014KT 35/15 A3006 RMK A01 T03450150  RH  031%=      5-min Rain = 0
KRO1 111929Z 18012G17KT 35/15 A3006 RMK A01 T03450151  RH  031%=      5-min Rain = 0
KRO1 111930Z 16011KT 35/15 A3006 RMK A01 T03470152  RH  031%=      5-min Rain = 0
KRO1 111931Z 16011KT 35/15 A3006 RMK A01 T03490151  RH  031%=      5-min Rain = 0
KRO1 111932Z 15010KT 35/15 A3006 RMK A01 T03490152  RH  031%=      5-min Rain = 0
KRO1 111933Z 14011G16KT 35/15 A3006 RMK A01 T03500152  RH  031%=      5-min Rain = 0
KRO1 111934Z 13014KT 35/15 A3005 RMK A01 T03490152  RH  031%=      5-min Rain = 0
KRO1 111935Z 13013KT 35/15 A3005 RMK A01 T03520152  RH  030%=      5-min Rain = 0
KRO1 111936Z 14013KT 36/15 A3005 RMK A01 T03550152  RH  030%=      5-min Rain = 0
KRO1 111937Z 13015KT 36/15 A3005 RMK A01 T03550152  RH  030%=      5-min Rain = 0
KRO1 111938Z 15013KT 36/15 A3005 RMK A01 T03560151  RH  029%=      5-min Rain = 0
KRO1 111939Z 16011KT 36/15 A3005 RMK A01 T03600152  RH  029%=      5-min Rain = 0
KRO1 111940Z 13011KT 36/15 A3005 RMK A01 T03630152  RH  029%=      5-min Rain = 0
KRO1 111941Z 14012KT 36/15 A3005 RMK A01 T03600149  RH  029%=      5-min Rain = 0
KRO1 111942Z 17010KT 36/15 A3005 RMK A01 T03560152  RH  030%=      5-min Rain = 0
KRO1 111943Z 15013KT 35/15 A3005 RMK A01 T03540154  RH  030%=      5-min Rain = 0
KRO1 111944Z 14015KT 35/15 A3005 RMK A01 T03520154  RH  031%=      5-min Rain = 0
KRO1 111945Z 13014KT 35/16 A3005 RMK A01 T03500155  RH  031%=      5-min Rain = 0
KRO1 111946Z 14012KT 35/15 A3005 RMK A01 T03470154  RH  032%=      5-min Rain = 0
KRO1 111947Z 14013G18KT 35/15 A3005 RMK A01 T03450154  RH  032%=      5-min Rain = 0
KRO1 111948Z 13020KT 35/16 A3005 RMK A01 T03450156  RH  032%=      5-min Rain = 0
KRO1 111949Z 14016KT 34/16 A3005 RMK A01 T03440155  RH  032%=      5-min Rain = 0
KRO1 111950Z 13016KT 34/16 A3005 RMK A01 T03430155  RH  032%=      5-min Rain = 0
KRO1 111951Z 14018KT 34/15 A3005 RMK A01 T03430153  RH  032%=      5-min Rain = 0
KRO1 111952Z 13015KT 34/15 A3005 RMK A01 T03440154  RH  032%=      5-min Rain = 0
KRO1 111953Z 12012KT 34/16 A3004 RMK A01 T03440155  RH  032%=      5-min Rain = 0
KRO1 111954Z 12011KT 34/15 A3004 RMK A01 T03420154  RH  032%=      5-min Rain = 0
KRO1 111955Z 13010KT 34/16 A3004 RMK A01 T03440155  RH  032%=      5-min Rain = 0
KRO1 111956Z 12010KT 35/16 A3004 RMK A01 T03480156  RH  032%=      5-min Rain = 0
KRO1 111957Z 14013G18KT 35/15 A3004 RMK A01 T03500154  RH  031%=      5-min Rain = 0
KRO1 111958Z 16014KT 35/15 A3004 RMK A01 T03520154  RH  031%=      5-min Rain = 0
KRO1 111959Z 17012G18KT 35/15 A3004 RMK A01 T03530153  RH  030%=      5-min Rain = 0
KRO1 112000Z 18018G23KT 35/15 A3004 RMK A01 T03510153  RH  031%=      5-min Rain = 0
KRO1 112001Z 17013KT 35/15 A3004 RMK A01 T03500153  RH  031%=      5-min Rain = 0
KRO1 112002Z 17012KT 35/15 A3004 RMK A01 T03500153  RH  031%=      5-min Rain = 0
KRO1 112003Z 16011KT 35/15 A3004 RMK A01 T03500152  RH  031%=      5-min Rain = 0
KRO1 112004Z 15010KT 35/15 A3004 RMK A01 T03470152  RH  031%=      5-min Rain = 0
KRO1 112005Z 15011KT 35/15 A3004 RMK A01 T03470153  RH  031%=      5-min Rain = 0
KRO1 112006Z 14013KT 35/15 A3004 RMK A01 T03500152  RH  031%=      5-min Rain = 0
KRO1 112007Z 14013KT 35/15 A3004 RMK A01 T03500150  RH  030%=      5-min Rain = 0
KRO1 112008Z 15015KT 35/15 A3004 RMK A01 T03480151  RH  031%=      5-min Rain = 0
KRO1 112009Z 15013KT 35/15 A3004 RMK A01 T03490153  RH  031%=      5-min Rain = 0
KRO1 112010Z 15011KT 35/15 A3004 RMK A01 T03480154  RH  031%=      5-min Rain = 0
KRO1 112011Z 15010KT 35/15 A3004 RMK A01 T03460154  RH  032%=      5-min Rain = 0
KRO1 112012Z 15017KT 35/16 A3004 RMK A01 T03460155  RH  032%=      5-min Rain = 0
KRO1 112013Z 16017KT 35/15 A3004 RMK A01 T03490154  RH  031%=      5-min Rain = 0
KRO1 112014Z 16015KT 35/15 A3004 RMK A01 T03530153  RH  030%=      5-min Rain = 0
KRO1 112015Z 17013KT 36/15 A3004 RMK A01 T03550153  RH  030%=      5-min Rain = 0
KRO1 112016Z 17010KT 36/15 A3004 RMK A01 T03550151  RH  030%=      5-min Rain = 0
KRO1 112017Z 16011KT 36/15 A3003 RMK A01 T03550154  RH  030%=      5-min Rain = 0
KRO1 112018Z 15013KT 36/15 A3003 RMK A01 T03570153  RH  030%=      5-min Rain = 0
KRO1 112019Z 14012KT 36/15 A3003 RMK A01 T03580152  RH  029%=      5-min Rain = 0
KRO1 112020Z 15012KT 36/15 A3003 RMK A01 T03590153  RH  029%=      5-min Rain = 0
KRO1 112021Z 16011KT 36/15 A3003 RMK A01 T03600154  RH  029%=      5-min Rain = 0
KRO1 112022Z 16010KT 36/15 A3003 RMK A01 T03600153  RH  029%=      5-min Rain = 0
KRO1 112023Z 16009KT 36/15 A3003 RMK A01 T03580154  RH  030%=      5-min Rain = 0
KRO1 112024Z 15006KT 36/15 A3003 RMK A01 T03580153  RH  030%=      5-min Rain = 0
KRO1 112025Z 15010G18KT 36/15 A3003 RMK A01 T03570154  RH  030%=      5-min Rain = 0
KRO1 112026Z 15015KT 36/15 A3003 RMK A01 T03580154  RH  030%=      5-min Rain = 0
KRO1 112027Z 13012KT 36/15 A3003 RMK A01 T03590154  RH  030%=      5-min Rain = 0
KRO1 112028Z 12009KT 36/15 A3003 RMK A01 T03570153  RH  030%=      5-min Rain = 0
KRO1 112029Z 13013KT 36/15 A3003 RMK A01 T03560153  RH  030%=      5-min Rain = 0
KRO1 112030Z 14012G17KT 36/15 A3003 RMK A01 T03570153  RH  030%=      5-min Rain = 0
KRO1 112031Z 16012KT 36/15 A3003 RMK A01 T03570151  RH  029%=      5-min Rain = 0
KRO1 112032Z 17016KT 36/15 A3003 RMK A01 T03590152  RH  029%=      5-min Rain = 0
KRO1 112033Z 17017KT 36/15 A3003 RMK A01 T03630151  RH  028%=      5-min Rain = 0
KRO1 112034Z 15013KT 36/15 A3003 RMK A01 T03620149  RH  028%=      5-min Rain = 0
KRO1 112035Z 16012KT 36/15 A3003 RMK A01 T03600151  RH  029%=      5-min Rain = 0
KRO1 112036Z 16007KT 36/15 A3002 RMK A01 T03570149  RH  029%=      5-min Rain = 0
KRO1 112037Z 13007KT 35/15 A3002 RMK A01 T03540149  RH  029%=      5-min Rain = 0
KRO1 112038Z 15009KT 35/15 A3002 RMK A01 T03540149  RH  029%=      5-min Rain = 0
KRO1 112039Z 13013KT 36/15 A3002 RMK A01 T03570154  RH  030%=      5-min Rain = 0
KRO1 112040Z 13014KT 36/16 A3002 RMK A01 T03610156  RH  030%=      5-min Rain = 0
KRO1 112041Z 14013KT 36/15 A3002 RMK A01 T03610154  RH  029%=      5-min Rain = 0
KRO1 112042Z 15013KT 36/16 A3002 RMK A01 T03590155  RH  030%=      5-min Rain = 0
KRO1 112043Z 17014KT 36/15 A3002 RMK A01 T03610153  RH  029%=      5-min Rain = 0
KRO1 112044Z 18013KT 36/15 A3002 RMK A01 T03620152  RH  029%=      5-min Rain = 0
KRO1 112045Z 18014KT 36/15 A3002 RMK A01 T03590153  RH  029%=      5-min Rain = 0
KRO1 112046Z 17015KT 36/15 A3002 RMK A01 T03590151  RH  029%=      5-min Rain = 0
KRO1 112047Z 17012KT 36/15 A3002 RMK A01 T03600150  RH  029%=      5-min Rain = 0
KRO1 112048Z 16011KT 36/15 A3002 RMK A01 T03590149  RH  029%=      5-min Rain = 0
KRO1 112049Z 15014KT 36/15 A3002 RMK A01 T03580149  RH  029%=      5-min Rain = 0
KRO1 112050Z 15017KT 36/15 A3002 RMK A01 T03570150  RH  029%=      5-min Rain = 0
KRO1 112051Z 14011KT 36/15 A3002 RMK A01 T03580148  RH  029%=      5-min Rain = 0
KRO1 112052Z 14009KT 36/15 A3002 RMK A01 T03570150  RH  029%=      5-min Rain = 0
KRO1 112053Z 13010KT 36/15 A3002 RMK A01 T03600151  RH  029%=      5-min Rain = 0
KRO1 112054Z 16012KT 36/15 A3002 RMK A01 T03560149  RH  029%=      5-min Rain = 0
KRO1 112055Z 18015KT 36/15 A3001 RMK A01 T03550149  RH  029%=      5-min Rain = 0
KRO1 112056Z 18013KT 36/15 A3001 RMK A01 T03560149  RH  029%=      5-min Rain = 0
KRO1 112057Z 18011KT 36/15 A3001 RMK A01 T03550149  RH  029%=      5-min Rain = 0
KRO1 112058Z 16011KT 36/15 A3001 RMK A01 T03560149  RH  029%=      5-min Rain = 0
KRO1 112059Z 18012KT 36/15 A3001 RMK A01 T03550150  RH  030%=      5-min Rain = 0
KRO1 112100Z 18014KT 36/15 A3001 RMK A01 T03590153  RH  029%=      5-min Rain = 0
KRO1 112101Z 17011G16KT 36/15 A3001 RMK A01 T03600151  RH  029%=      5-min Rain = 0
KRO1 112102Z 16015KT 36/15 A3001 RMK A01 T03590152  RH  029%=      5-min Rain = 0
KRO1 112103Z 16014KT 36/15 A3001 RMK A01 T03610150  RH  028%=      5-min Rain = 0
KRO1 112104Z 16012KT 36/15 A3001 RMK A01 T03580149  RH  029%=      5-min Rain = 0
KRO1 112105Z 15015KT 36/15 A3001 RMK A01 T03550149  RH  029%=      5-min Rain = 0
KRO1 112106Z 17013KT 36/15 A3001 RMK A01 T03550150  RH  029%=      5-min Rain = 0
KRO1 112107Z 18014KT 36/15 A3001 RMK A01 T03550151  RH  030%=      5-min Rain = 0
KRO1 112108Z 17015KT 36/15 A3001 RMK A01 T03590152  RH  029%=      5-min Rain = 0
KRO1 112109Z 18012KT 36/15 A3001 RMK A01 T03600152  RH  029%=      5-min Rain = 0
KRO1 112110Z 15010KT 36/15 A3001 RMK A01 T03610152  RH  029%=      5-min Rain = 0
KRO1 112111Z 14010KT 36/15 A3001 RMK A01 T03630152  RH  029%=      5-min Rain = 0
KRO1 112112Z 15011KT 36/15 A3001 RMK A01 T03630152  RH  029%=      5-min Rain = 0
KRO1 112113Z 16008G13KT 36/15 A3001 RMK A01 T03630153  RH  029%=      5-min Rain = 0
KRO1 112114Z 13011KT 36/15 A3001 RMK A01 T03630150  RH  028%=      5-min Rain = 0
KRO1 112115Z 16010G16KT 36/15 A3001 RMK A01 T03630151  RH  028%=      5-min Rain = 0
KRO1 112116Z 16011KT 37/15 A3001 RMK A01 T03670154  RH  028%=      5-min Rain = 0
KRO1 112117Z 16014KT 37/16 A3001 RMK A01 T03720155  RH  028%=      5-min Rain = 0
KRO1 112118Z 18014KT 37/15 A3001 RMK A01 T03700152  RH  027%=      5-min Rain = 0
KRO1 112119Z 17017KT 37/15 A30 RMK A01 T03660154  RH  028%=      5-min Rain = 0
KRO1 112120Z 15017KT 37/16 A30 RMK A01 T03680155  RH  028%=      5-min Rain = 0
KRO1 112121Z 14014KT 37/16 A30 RMK A01 T03700155  RH  028%=      5-min Rain = 0
KRO1 112122Z 15015G21KT 37/15 A30 RMK A01 T03680153  RH  028%=      5-min Rain = 0
KRO1 112123Z 15014KT 37/15 A30 RMK A01 T03650153  RH  028%=      5-min Rain = 0
KRO1 112124Z 14016G22KT 36/15 A30 RMK A01 T03640153  RH  029%=      5-min Rain = 0
KRO1 112125Z 16013KT 36/15 A30 RMK A01 T03620152  RH  029%=      5-min Rain = 0
KRO1 112126Z 17010KT 36/15 A30 RMK A01 T03630153  RH  029%=      5-min Rain = 0
KRO1 112127Z 18012KT 36/15 A30 RMK A01 T03620154  RH  029%=      5-min Rain = 0
KRO1 112128Z 17015G20KT 36/16 A30 RMK A01 T03630156  RH  029%=      5-min Rain = 0
KRO1 112129Z 16019KT 37/16 A30 RMK A01 T03650155  RH  029%=      5-min Rain = 0
KRO1 112130Z 16018KT 37/15 A30 RMK A01 T03660154  RH  028%=      5-min Rain = 0
KRO1 112131Z 16018KT 36/15 A30 RMK A01 T03620153  RH  029%=      5-min Rain = 0
KRO1 112132Z 16015KT 36/15 A30 RMK A01 T03610154  RH  029%=      5-min Rain = 0
KRO1 112133Z 15011G16KT 36/15 A30 RMK A01 T03610153  RH  029%=      5-min Rain = 0
KRO1 112134Z 14009KT 36/15 A30 RMK A01 T03580153  RH  030%=      5-min Rain = 0
KRO1 112135Z 16012KT 36/16 A30 RMK A01 T03610155  RH  029%=      5-min Rain = 0
KRO1 112136Z 17014KT 36/15 A30 RMK A01 T03640153  RH  028%=      5-min Rain = 0
KRO1 112137Z 16013KT 37/16 A30 RMK A01 T03650155  RH  029%=      5-min Rain = 0
KRO1 112138Z 16016KT 37/16 A30 RMK A01 T03650156  RH  029%=      5-min Rain = 0
KRO1 112139Z 16015KT 37/16 A30 RMK A01 T03680155  RH  028%=      5-min Rain = 0
KRO1 112140Z 16013KT 37/15 A30 RMK A01 T03650153  RH  028%=      5-min Rain = 0
KRO1 112141Z 17010KT 36/15 A30 RMK A01 T03610154  RH  029%=      5-min Rain = 0
KRO1 112142Z 15008KT 36/15 A30 RMK A01 T03610154  RH  029%=      5-min Rain = 0
KRO1 112143Z 16012KT 36/16 A30 RMK A01 T03640155  RH  029%=      5-min Rain = 0
KRO1 112144Z 16009KT 36/15 A30 RMK A01 T03620153  RH  029%=      5-min Rain = 0
KRO1 112145Z 15010KT 36/15 A30 RMK A01 T03600153  RH  029%=      5-min Rain = 0
KRO1 112146Z 17010KT 36/15 A30 RMK A01 T03590152  RH  029%=      5-min Rain = 0
KRO1 112147Z 16011KT 36/15 A30 RMK A01 T03570152  RH  030%=      5-min Rain = 0
KRO1 112148Z 16010KT 36/15 A30 RMK A01 T03560151  RH  030%=      5-min Rain = 0
KRO1 112149Z 18010KT 35/15 A2999 RMK A01 T03540152  RH  030%=      5-min Rain = 0
KRO1 112150Z 17011KT 35/15 A2999 RMK A01 T03540152  RH  030%=      5-min Rain = 0
KRO1 112151Z 17011KT 35/15 A2999 RMK A01 T03540152  RH  030%=      5-min Rain = 0
KRO1 112152Z 16009KT 35/15 A2999 RMK A01 T03530151  RH  030%=      5-min Rain = 0
KRO1 112153Z 15009KT 35/15 A2999 RMK A01 T03510151  RH  030%=      5-min Rain = 0
KRO1 112154Z 15009KT 35/15 A2999 RMK A01 T03500152  RH  031%=      5-min Rain = 0
KRO1 112155Z 14011KT 35/15 A2999 RMK A01 T03510152  RH  030%=      5-min Rain = 0
KRO1 112156Z 15012KT 35/15 A2999 RMK A01 T03530153  RH  030%=      5-min Rain = 0
KRO1 112157Z 15014KT 35/15 A2999 RMK A01 T03540153  RH  030%=      5-min Rain = 0
KRO1 112158Z 16016KT 36/15 A2999 RMK A01 T03550153  RH  030%=      5-min Rain = 0
KRO1 112159Z 16017KT 35/15 A2999 RMK A01 T03540153  RH  030%=      5-min Rain = 0
KRO1 112200Z 15014KT 35/15 A2999 RMK A01 T03530152  RH  030%=      5-min Rain = 0
KRO1 112201Z 18015KT 35/15 A2999 RMK A01 T03520153  RH  031%=      5-min Rain = 0
KRO1 112202Z 19016KT 35/15 A2999 RMK A01 T03530152  RH  030%=      5-min Rain = 0
KRO1 112203Z 18012KT 35/15 A2999 RMK A01 T03540152  RH  030%=      5-min Rain = 0
KRO1 112204Z 19013KT 35/15 A2999 RMK A01 T03540153  RH  030%=      5-min Rain = 0
KRO1 112205Z 17013KT 35/15 A2999 RMK A01 T03540153  RH  030%=      5-min Rain = 0
KRO1 112206Z 15010KT 36/15 A2999 RMK A01 T03560152  RH  030%=      5-min Rain = 0
KRO1 112207Z 16011KT 36/15 A2999 RMK A01 T03580153  RH  029%=      5-min Rain = 0
KRO1 112208Z 16010KT 36/16 A2999 RMK A01 T03630155  RH  029%=      5-min Rain = 0
KRO1 112209Z 15011G19KT 37/15 A2999 RMK A01 T03650154  RH  029%=      5-min Rain = 0
KRO1 112210Z 16018KT 37/15 A2999 RMK A01 T03650153  RH  028%=      5-min Rain = 0
KRO1 112211Z 16014KT 36/15 A2999 RMK A01 T03600151  RH  029%=      5-min Rain = 0
KRO1 112212Z 17014KT 36/15 A2999 RMK A01 T03570152  RH  029%=      5-min Rain = 0
KRO1 112213Z 17013KT 36/15 A2999 RMK A01 T03570152  RH  030%=      5-min Rain = 0
KRO1 112214Z 19012KT 36/15 A2999 RMK A01 T03560152  RH  030%=      5-min Rain = 0
KRO1 112215Z 18010KT 36/15 A2999 RMK A01 T03560153  RH  030%=      5-min Rain = 0
KRO1 112216Z 18014G20KT 35/15 A2998 RMK A01 T03540153  RH  030%=      5-min Rain = 0
KRO1 112217Z 18016KT 35/15 A2998 RMK A01 T03540153  RH  030%=      5-min Rain = 0
KRO1 112218Z 19018KT 36/15 A2998 RMK A01 T03550153  RH  030%=      5-min Rain = 0
KRO1 112219Z 20016KT 36/15 A2998 RMK A01 T03570154  RH  030%=      5-min Rain = 0
KRO1 112220Z 18013KT 36/15 A2998 RMK A01 T03600154  RH  030%=      5-min Rain = 0
KRO1 112221Z 18015KT 36/15 A2998 RMK A01 T03610153  RH  029%=      5-min Rain = 0
KRO1 112222Z 17017KT 36/15 A2998 RMK A01 T03610152  RH  029%=      5-min Rain = 0
KRO1 112223Z 18014KT 36/15 A2998 RMK A01 T03610152  RH  029%=      5-min Rain = 0
KRO1 112224Z 19014KT 36/15 A2998 RMK A01 T03620152  RH  029%=      5-min Rain = 0
KRO1 112225Z 18015KT 36/15 A2998 RMK A01 T03620153  RH  029%=      5-min Rain = 0
KRO1 112226Z 18014KT 36/15 A2998 RMK A01 T03630152  RH  029%=      5-min Rain = 0
KRO1 112227Z 18013KT 36/15 A2998 RMK A01 T03630151  RH  028%=      5-min Rain = 0
KRO1 112228Z 17013G18KT 36/15 A2998 RMK A01 T03640151  RH  028%=      5-min Rain = 0
KRO1 112229Z 17016KT 37/15 A2998 RMK A01 T03660154  RH  028%=      5-min Rain = 0
KRO1 112230Z 17015KT 37/15 A2998 RMK A01 T03670152  RH  028%=      5-min Rain = 0
KRO1 112231Z 16010KT 37/15 A2998 RMK A01 T03650152  RH  028%=      5-min Rain = 0
KRO1 112232Z 17011G16KT 36/15 A2998 RMK A01 T03630152  RH  029%=      5-min Rain = 0
KRO1 112233Z 17013KT 36/15 A2998 RMK A01 T03620151  RH  029%=      5-min Rain = 0
KRO1 112234Z 18012KT 36/15 A2998 RMK A01 T03620151  RH  028%=      5-min Rain = 0
KRO1 112235Z 19014KT 36/15 A2998 RMK A01 T03640152  RH  028%=      5-min Rain = 0
KRO1 112236Z 18020KT 37/15 A2997 RMK A01 T03670151  RH  028%=      5-min Rain = 0
KRO1 112237Z 19019KT 37/15 A2997 RMK A01 T03660150  RH  028%=      5-min Rain = 0
KRO1 112238Z 18018KT 36/15 A2997 RMK A01 T03630149  RH  028%=      5-min Rain = 0
KRO1 112239Z 17017KT 36/15 A2997 RMK A01 T03610148  RH  028%=      5-min Rain = 0
KRO1 112240Z 16013KT 36/15 A2997 RMK A01 T03600148  RH  028%=      5-min Rain = 0
KRO1 112241Z 17013KT 36/15 A2997 RMK A01 T03620150  RH  028%=      5-min Rain = 0
KRO1 112242Z 17012KT 36/15 A2998 RMK A01 T03640149  RH  028%=      5-min Rain = 0
KRO1 112243Z 18011G16KT 36/15 A2997 RMK A01 T03610148  RH  028%=      5-min Rain = 0
KRO1 112244Z 17009KT 36/15 A2997 RMK A01 T03590149  RH  029%=      5-min Rain = 0
KRO1 112245Z 15015KT 36/15 A2997 RMK A01 T03590150  RH  029%=      5-min Rain = 0
KRO1 112246Z 15015KT 36/15 A2998 RMK A01 T03610152  RH  029%=      5-min Rain = 0
KRO1 112247Z 17014KT 36/15 A2998 RMK A01 T03610152  RH  029%=      5-min Rain = 0
KRO1 112248Z 16013KT 36/15 A2998 RMK A01 T03600152  RH  029%=      5-min Rain = 0
KRO1 112249Z 13013KT 36/15 A2998 RMK A01 T03610153  RH  029%=      5-min Rain = 0
KRO1 112250Z 13010KT 36/15 A2998 RMK A01 T03610153  RH  029%=      5-min Rain = 0
KRO1 112251Z 14011KT 36/15 A2998 RMK A01 T03570151  RH  029%=      5-min Rain = 0
KRO1 112252Z 13012KT 36/15 A2997 RMK A01 T03570152  RH  030%=      5-min Rain = 0
KRO1 112253Z 13012KT 36/15 A2997 RMK A01 T03570152  RH  030%=      5-min Rain = 0
KRO1 112254Z 13013KT 36/15 A2997 RMK A01 T03570152  RH  030%=      5-min Rain = 0
KRO1 112255Z 15016G21KT 36/15 A2997 RMK A01 T03550151  RH  030%=      5-min Rain = 0
KRO1 112256Z 16013KT 36/15 A2997 RMK A01 T03560151  RH  029%=      5-min Rain = 0
KRO1 112257Z 15012KT 36/15 A2997 RMK A01 T03560151  RH  029%=      5-min Rain = 0
KRO1 112258Z 16010KT 36/15 A2997 RMK A01 T03580152  RH  029%=      5-min Rain = 0
KRO1 112259Z 14015KT 36/15 A2997 RMK A01 T03640154  RH  029%=      5-min Rain = 0
KRO1 112300Z 15014KT 37/15 A2998 RMK A01 T03670151  RH  028%=      5-min Rain = 0
KRO1 112301Z 14015KT 37/15 A2997 RMK A01 T03660150  RH  028%=      5-min Rain = 0
KRO1 112302Z 14016KT 36/15 A2997 RMK A01 T03630148  RH  028%=      5-min Rain = 0
KRO1 112303Z 14013KT 36/15 A2997 RMK A01 T03600147  RH  028%=      5-min Rain = 0
KRO1 112304Z 14012KT 36/15 A2997 RMK A01 T03590147  RH  028%=      5-min Rain = 0
KRO1 112305Z 14011KT 36/15 A2997 RMK A01 T03580147  RH  029%=      5-min Rain = 0
KRO1 112306Z 13014KT 36/15 A2997 RMK A01 T03580149  RH  029%=      5-min Rain = 0
KRO1 112307Z 13014KT 36/15 A2997 RMK A01 T03590147  RH  028%=      5-min Rain = 0
KRO1 112308Z 13015KT 36/15 A2997 RMK A01 T03590146  RH  028%=      5-min Rain = 0
KRO1 112309Z 13015KT 36/15 A2997 RMK A01 T03590147  RH  028%=      5-min Rain = 0
KRO1 112310Z 15015KT 36/15 A2997 RMK A01 T03590148  RH  028%=      5-min Rain = 0
KRO1 112311Z 16012KT 36/15 A2997 RMK A01 T03590146  RH  028%=      5-min Rain = 0
KRO1 112312Z 15011KT 36/15 A2997 RMK A01 T03600147  RH  028%=      5-min Rain = 0
KRO1 112313Z 16011KT 36/15 A2997 RMK A01 T03610147  RH  028%=      5-min Rain = 0
KRO1 112314Z 15012KT 36/15 A2997 RMK A01 T03620146  RH  028%=      5-min Rain = 0
KRO1 112315Z 16013KT 36/15 A2997 RMK A01 T03620148  RH  028%=      5-min Rain = 0
KRO1 112316Z 15015KT 36/15 A2997 RMK A01 T03630148  RH  028%=      5-min Rain = 0
KRO1 112317Z 15014KT 36/15 A2997 RMK A01 T03630148  RH  028%=      5-min Rain = 0
KRO1 112318Z 16012KT 36/15 A2997 RMK A01 T03600147  RH  028%=      5-min Rain = 0
KRO1 112319Z 17013KT 36/15 A2997 RMK A01 T03590147  RH  028%=      5-min Rain = 0
KRO1 112320Z 17013KT 36/15 A2997 RMK A01 T03590148  RH  028%=      5-min Rain = 0
KRO1 112321Z 17010KT 36/15 A2997 RMK A01 T03610148  RH  028%=      5-min Rain = 0
KRO1 112322Z 16011KT 36/15 A2996 RMK A01 T03620147  RH  028%=      5-min Rain = 0
KRO1 112323Z 16012KT 36/15 A2996 RMK A01 T03610148  RH  028%=      5-min Rain = 0
KRO1 112324Z 15016KT 36/15 A2996 RMK A01 T03600148  RH  028%=      5-min Rain = 0
KRO1 112325Z 15013KT 36/15 A2997 RMK A01 T03600147  RH  028%=      5-min Rain = 0
KRO1 112326Z 15013G18KT 36/15 A2997 RMK A01 T03590146  RH  028%=      5-min Rain = 0
KRO1 112327Z 15010KT 36/15 A2997 RMK A01 T03560146  RH  029%=      5-min Rain = 0
KRO1 112328Z 15013KT 36/15 A2997 RMK A01 T03550146  RH  029%=      5-min Rain = 0
KRO1 112329Z 16011KT 36/15 A2997 RMK A01 T03550147  RH  029%=      5-min Rain = 0
KRO1 112330Z 15011KT 35/15 A2997 RMK A01 T03540147  RH  029%=      5-min Rain = 0
KRO1 112331Z 17013KT 36/15 A2997 RMK A01 T03550148  RH  029%=      5-min Rain = 0
KRO1 112332Z 17014KT 36/15 A2997 RMK A01 T03560146  RH  028%=      5-min Rain = 0
KRO1 112333Z 16012KT 35/15 A2997 RMK A01 T03540145  RH  029%=      5-min Rain = 0
KRO1 112334Z 15012KT 35/15 A2997 RMK A01 T03530147  RH  029%=      5-min Rain = 0
KRO1 112335Z 16012KT 35/15 A2997 RMK A01 T03530147  RH  029%=      5-min Rain = 0
KRO1 112336Z 15011KT 35/15 A2997 RMK A01 T03520146  RH  029%=      5-min Rain = 0
KRO1 112337Z 15011KT 35/15 A2997 RMK A01 T03510147  RH  029%=      5-min Rain = 0
KRO1 112338Z 15012KT 35/15 A2997 RMK A01 T03510147  RH  029%=      5-min Rain = 0
KRO1 112339Z 15010KT 35/15 A2997 RMK A01 T03500146  RH  030%=      5-min Rain = 0
KRO1 112340Z 14010KT 35/15 A2996 RMK A01 T03500147  RH  030%=      5-min Rain = 0
KRO1 112341Z 14011KT 35/15 A2996 RMK A01 T03510147  RH  030%=      5-min Rain = 0
KRO1 112342Z 14011KT 35/15 A2996 RMK A01 T03510147  RH  030%=      5-min Rain = 0
KRO1 112343Z 14011KT 35/15 A2996 RMK A01 T03500147  RH  030%=      5-min Rain = 0
KRO1 112344Z 14011KT 35/15 A2996 RMK A01 T03490148  RH  030%=      5-min Rain = 0
KRO1 112345Z 13013KT 35/15 A2996 RMK A01 T03490147  RH  030%=      5-min Rain = 0
KRO1 112346Z 13013KT 35/15 A2996 RMK A01 T03490147  RH  030%=      5-min Rain = 0
KRO1 112347Z 13011KT 35/15 A2997 RMK A01 T03490146  RH  030%=      5-min Rain = 0
KRO1 112348Z 12011KT 35/15 A2997 RMK A01 T03490146  RH  030%=      5-min Rain = 0
KRO1 112349Z 12012KT 35/15 A2997 RMK A01 T03490146  RH  030%=      5-min Rain = 0
KRO1 112350Z 13012KT 35/15 A2997 RMK A01 T03490146  RH  030%=      5-min Rain = 0
KRO1 112351Z 13012KT 35/15 A2997 RMK A01 T03500147  RH  030%=      5-min Rain = 0
KRO1 112352Z 12010KT 35/15 A2997 RMK A01 T03490147  RH  030%=      5-min Rain = 0
KRO1 112353Z 14010KT 35/15 A2997 RMK A01 T03490148  RH  030%=      5-min Rain = 0
KRO1 112354Z 15011KT 35/15 A2997 RMK A01 T03490148  RH  030%=      5-min Rain = 0
KRO1 112355Z 15012KT 35/15 A2997 RMK A01 T03500148  RH  030%=      5-min Rain = 0
KRO1 112356Z 15011KT 35/15 A2997 RMK A01 T03510148  RH  030%=      5-min Rain = 0
KRO1 112357Z 16011KT 35/15 A2997 RMK A01 T03510146  RH  029%=      5-min Rain = 0
KRO1 112358Z 15011KT 35/15 A2997 RMK A01 T03510146  RH  029%=      5-min Rain = 0
KRO1 112359Z 15015KT 35/15 A2997 RMK A01 T03510146  RH  029%=      5-min Rain = 0
KRO1 120000Z 15015KT 35/15 A2997 RMK A01 T03510146  RH  029%=      5-min Rain = 0
KRO1 120001Z 14013KT 35/15 A2997 RMK A01 T03510146  RH  029%=      5-min Rain = 0
KRO1 120002Z 14013KT 35/15 A2997 RMK A01 T03510146  RH  029%=      5-min Rain = 0
KRO1 120003Z 15011KT 35/15 A2997 RMK A01 T03510146  RH  029%=      5-min Rain = 0
KRO1 120004Z 15009KT 35/15 A2997 RMK A01 T03500146  RH  029%=      5-min Rain = 0
KRO1 120005Z 15011KT 35/15 A2997 RMK A01 T03500145  RH  029%=      5-min Rain = 0
KRO1 120006Z 14013KT 35/14 A2997 RMK A01 T03500144  RH  029%=      5-min Rain = 0
KRO1 120007Z 14013KT 35/14 A2997 RMK A01 T03500143  RH  029%=      5-min Rain = 0
KRO1 120008Z 15013KT 35/14 A2997 RMK A01 T03510142  RH  029%=      5-min Rain = 0
KRO1 120009Z 14011KT 35/14 A2997 RMK A01 T03500142  RH  029%=      5-min Rain = 0
KRO1 120010Z 14011KT 35/14 A2997 RMK A01 T03500141  RH  029%=      5-min Rain = 0
KRO1 120011Z 16011KT 35/14 A2997 RMK A01 T03500142  RH  029%=      5-min Rain = 0
KRO1 120012Z 16012KT 35/14 A2997 RMK A01 T03500142  RH  029%=      5-min Rain = 0
KRO1 120013Z 16012KT 35/14 A2997 RMK A01 T03500143  RH  029%=      5-min Rain = 0
KRO1 120014Z 15014KT 35/14 A2997 RMK A01 T03500144  RH  029%=      5-min Rain = 0
KRO1 120015Z 14011KT 35/15 A2997 RMK A01 T03490145  RH  029%=      5-min Rain = 0
KRO1 120016Z 13012KT 35/15 A2997 RMK A01 T03500145  RH  029%=      5-min Rain = 0
KRO1 120017Z 13011KT 35/15 A2997 RMK A01 T03490145  RH  029%=      5-min Rain = 0
KRO1 120018Z 13011KT 35/15 A2997 RMK A01 T03490145  RH  030%=      5-min Rain = 0
KRO1 120019Z 13012KT 35/15 A2997 RMK A01 T03490145  RH  030%=      5-min Rain = 0
KRO1 120020Z 13012KT 35/15 A2997 RMK A01 T03490145  RH  030%=      5-min Rain = 0
KRO1 120021Z 14013KT 35/15 A2997 RMK A01 T03480146  RH  030%=      5-min Rain = 0
KRO1 120022Z 14013KT 35/15 A2997 RMK A01 T03480146  RH  030%=      5-min Rain = 0
KRO1 120023Z 15012KT 35/15 A2997 RMK A01 T03490146  RH  030%=      5-min Rain = 0
KRO1 120024Z 14012KT 35/15 A2997 RMK A01 T03480145  RH  030%=      5-min Rain = 0
KRO1 120025Z 15010KT 35/15 A2997 RMK A01 T03480145  RH  030%=      5-min Rain = 0
KRO1 120026Z 14010KT 35/15 A2997 RMK A01 T03480146  RH  030%=      5-min Rain = 0
KRO1 120027Z 14013KT 35/15 A2997 RMK A01 T03480145  RH  030%=      5-min Rain = 0
KRO1 120028Z 14013KT 35/14 A2997 RMK A01 T03490144  RH  029%=      5-min Rain = 0
KRO1 120029Z 14012KT 35/14 A2997 RMK A01 T03480144  RH  029%=      5-min Rain = 0
KRO1 120030Z 14011KT 35/14 A2997 RMK A01 T03480144  RH  029%=      5-min Rain = 0
KRO1 120031Z 15010KT 35/14 A2997 RMK A01 T03480144  RH  029%=      5-min Rain = 0
KRO1 120032Z 14011KT 35/14 A2997 RMK A01 T03480144  RH  029%=      5-min Rain = 0
KRO1 120033Z 14011KT 35/14 A2997 RMK A01 T03480144  RH  030%=      5-min Rain = 0
KRO1 120034Z 13012KT 35/14 A2997 RMK A01 T03470144  RH  030%=      5-min Rain = 0
KRO1 120035Z 13013KT 35/14 A2997 RMK A01 T03480144  RH  029%=      5-min Rain = 0
KRO1 120036Z 13013KT 35/14 A2997 RMK A01 T03470143  RH  029%=      5-min Rain = 0
KRO1 120037Z 13012KT 35/14 A2997 RMK A01 T03470143  RH  030%=      5-min Rain = 0
KRO1 120038Z 13011KT 35/15 A2997 RMK A01 T03470145  RH  030%=      5-min Rain = 0
KRO1 120039Z 14009KT 35/14 A2997 RMK A01 T03480144  RH  029%=      5-min Rain = 0
KRO1 120040Z 14008KT 35/14 A2997 RMK A01 T03490144  RH  029%=      5-min Rain = 0
KRO1 120041Z 13009KT 35/14 A2997 RMK A01 T03490144  RH  029%=      5-min Rain = 0
KRO1 120042Z 13008KT 35/15 A2997 RMK A01 T03500145  RH  029%=      5-min Rain = 0
KRO1 120043Z 14009KT 35/15 A2997 RMK A01 T03500145  RH  029%=      5-min Rain = 0
KRO1 120044Z 13010KT 35/15 A2997 RMK A01 T03500146  RH  029%=      5-min Rain = 0
KRO1 120045Z 13012KT 35/15 A2997 RMK A01 T03510146  RH  029%=      5-min Rain = 0
KRO1 120046Z 13012KT 35/15 A2997 RMK A01 T03510145  RH  029%=      5-min Rain = 0
KRO1 120047Z 13012KT 35/15 A2997 RMK A01 T03500145  RH  029%=      5-min Rain = 0
KRO1 120048Z 13015KT 35/15 A2997 RMK A01 T03490145  RH  029%=      5-min Rain = 0
KRO1 120049Z 14012KT 35/14 A2997 RMK A01 T03490144  RH  029%=      5-min Rain = 0
KRO1 120050Z 14011KT 35/14 A2997 RMK A01 T03480144  RH  029%=      5-min Rain = 0
KRO1 120051Z 13010KT 35/15 A2997 RMK A01 T03490145  RH  029%=      5-min Rain = 0
KRO1 120052Z 13010KT 35/15 A2997 RMK A01 T03490145  RH  030%=      5-min Rain = 0
KRO1 120053Z 13010KT 35/15 A2997 RMK A01 T03490145  RH  030%=      5-min Rain = 0
KRO1 120054Z 13011KT 35/15 A2997 RMK A01 T03480145  RH  030%=      5-min Rain = 0
KRO1 120055Z 13011KT 35/14 A2997 RMK A01 T03470144  RH  030%=      5-min Rain = 0
KRO1 120056Z 13010KT 35/14 A2997 RMK A01 T03470144  RH  030%=      5-min Rain = 0
KRO1 120057Z 13011KT 35/14 A2997 RMK A01 T03470144  RH  030%=      5-min Rain = 0
KRO1 120058Z 14009KT 35/14 A2997 RMK A01 T03460144  RH  030%=      5-min Rain = 0
KRO1 120059Z 14011KT 35/15 A2997 RMK A01 T03460145  RH  030%=      5-min Rain = 0
KRO1 120100Z 15008KT 35/15 A2997 RMK A01 T03460145  RH  030%=      5-min Rain = 0
KRO1 120101Z 14009KT 35/15 A2997 RMK A01 T03460145  RH  030%=      5-min Rain = 0
KRO1 120102Z 15012KT 35/14 A2997 RMK A01 T03460144  RH  030%=      5-min Rain = 0
KRO1 120103Z 16014KT 35/14 A2997 RMK A01 T03460144  RH  030%=      5-min Rain = 0
KRO1 120104Z 15015KT 35/14 A2997 RMK A01 T03460143  RH  030%=      5-min Rain = 0
KRO1 120105Z 15014KT 35/14 A2998 RMK A01 T03460142  RH  030%=      5-min Rain = 0
KRO1 120106Z 15012KT 35/14 A2998 RMK A01 T03450142  RH  030%=      5-min Rain = 0
KRO1 120107Z 15012KT 35/14 A2998 RMK A01 T03450142  RH  030%=      5-min Rain = 0
KRO1 120108Z 15011KT 35/14 A2998 RMK A01 T03450142  RH  030%=      5-min Rain = 0
KRO1 120109Z 15011KT 35/14 A2998 RMK A01 T03450142  RH  030%=      5-min Rain = 0
KRO1 120110Z 15013KT 35/14 A2998 RMK A01 T03450142  RH  030%=      5-min Rain = 0
KRO1 120111Z 15013KT 34/14 A2998 RMK A01 T03440141  RH  030%=      5-min Rain = 0
KRO1 120112Z 15013KT 34/14 A2998 RMK A01 T03440141  RH  030%=      5-min Rain = 0
KRO1 120113Z 15012KT 34/14 A2998 RMK A01 T03440141  RH  030%=      5-min Rain = 0
KRO1 120114Z 15009KT 34/14 A2998 RMK A01 T03440142  RH  030%=      5-min Rain = 0
KRO1 120115Z 16009KT 34/14 A2998 RMK A01 T03440142  RH  030%=      5-min Rain = 0
KRO1 120116Z 15010KT 34/14 A2998 RMK A01 T03440142  RH  030%=      5-min Rain = 0
KRO1 120117Z 15012KT 34/14 A2998 RMK A01 T03430141  RH  030%=      5-min Rain = 0
KRO1 120118Z 15011KT 34/14 A2998 RMK A01 T03440142  RH  030%=      5-min Rain = 0
KRO1 120119Z 15011KT 34/14 A2998 RMK A01 T03430142  RH  030%=      5-min Rain = 0
KRO1 120120Z 15012KT 34/14 A2998 RMK A01 T03440143  RH  030%=      5-min Rain = 0
KRO1 120121Z 15011KT 34/14 A2998 RMK A01 T03430143  RH  030%=      5-min Rain = 0
KRO1 120122Z 15011KT 34/14 A2998 RMK A01 T03430143  RH  030%=      5-min Rain = 0
KRO1 120123Z 15011KT 34/14 A2998 RMK A01 T03420143  RH  030%=      5-min Rain = 0
KRO1 120124Z 15011KT 34/14 A2998 RMK A01 T03420143  RH  030%=      5-min Rain = 0
KRO1 120125Z 14010KT 34/14 A2998 RMK A01 T03420144  RH  030%=      5-min Rain = 0
KRO1 120126Z 14010KT 34/14 A2998 RMK A01 T03420143  RH  030%=      5-min Rain = 0
KRO1 120127Z 13011KT 34/14 A2998 RMK A01 T03420144  RH  030%=      5-min Rain = 0
KRO1 120128Z 13010KT 34/14 A2998 RMK A01 T03410144  RH  031%=      5-min Rain = 0
KRO1 120129Z 14012KT 34/14 A2998 RMK A01 T03410144  RH  031%=      5-min Rain = 0
KRO1 120130Z 14012KT 34/14 A2998 RMK A01 T03410144  RH  031%=      5-min Rain = 0
KRO1 120131Z 14010KT 34/14 A2998 RMK A01 T03410144  RH  031%=      5-min Rain = 0
KRO1 120132Z 14010KT 34/14 A2998 RMK A01 T03410144  RH  031%=      5-min Rain = 0
KRO1 120133Z 14010KT 34/14 A2998 RMK A01 T03400144  RH  031%=      5-min Rain = 0
KRO1 120134Z 14011KT 34/14 A2998 RMK A01 T03400144  RH  031%=      5-min Rain = 0
KRO1 120135Z 14010KT 34/14 A2998 RMK A01 T03400144  RH  031%=      5-min Rain = 0
KRO1 120136Z 14009KT 34/14 A2998 RMK A01 T03390144  RH  031%=      5-min Rain = 0
KRO1 120137Z 14010KT 34/14 A2998 RMK A01 T03390144  RH  031%=      5-min Rain = 0
KRO1 120138Z 15010KT 34/14 A2998 RMK A01 T03390144  RH  031%=      5-min Rain = 0
KRO1 120139Z 15010KT 34/14 A2998 RMK A01 T03380143  RH  031%=      5-min Rain = 0
KRO1 120140Z 14011KT 34/14 A2999 RMK A01 T03380143  RH  031%=      5-min Rain = 0
KRO1 120141Z 14010KT 34/14 A2999 RMK A01 T03380143  RH  031%=      5-min Rain = 0
KRO1 120142Z 14011KT 34/14 A2999 RMK A01 T03380143  RH  031%=      5-min Rain = 0
KRO1 120143Z 14011KT 34/14 A2999 RMK A01 T03380144  RH  031%=      5-min Rain = 0
KRO1 120144Z 14011KT 34/14 A2999 RMK A01 T03380144  RH  031%=      5-min Rain = 0
KRO1 120145Z 14011KT 34/14 A2999 RMK A01 T03380144  RH  031%=      5-min Rain = 0
KRO1 120146Z 14012KT 34/14 A2999 RMK A01 T03380144  RH  031%=      5-min Rain = 0
KRO1 120147Z 14010KT 34/15 A2999 RMK A01 T03380145  RH  031%=      5-min Rain = 0
KRO1 120148Z 14012KT 34/14 A2999 RMK A01 T03380144  RH  031%=      5-min Rain = 0
KRO1 120149Z 14011KT 34/15 A2999 RMK A01 T03370145  RH  031%=      5-min Rain = 0
KRO1 120150Z 14010KT 34/15 A2999 RMK A01 T03370145  RH  031%=      5-min Rain = 0
KRO1 120151Z 14013KT 34/15 A2999 RMK A01 T03370145  RH  032%=      5-min Rain = 0
KRO1 120152Z 14011KT 34/15 A2999 RMK A01 T03370145  RH  031%=      5-min Rain = 0
KRO1 120153Z 14009KT 34/15 A2999 RMK A01 T03370145  RH  032%=      5-min Rain = 0
KRO1 120154Z 14011KT 34/15 A2999 RMK A01 T03360145  RH  032%=      5-min Rain = 0
KRO1 120155Z 14011KT 34/15 A2999 RMK A01 T03360145  RH  032%=      5-min Rain = 0
KRO1 120156Z 14010KT 34/15 A2999 RMK A01 T03360145  RH  032%=      5-min Rain = 0
KRO1 120157Z 14009KT 34/15 A2999 RMK A01 T03360145  RH  032%=      5-min Rain = 0
KRO1 120158Z 14010KT 34/15 A2999 RMK A01 T03360145  RH  032%=      5-min Rain = 0
KRO1 120159Z 14010KT 34/15 A2999 RMK A01 T03350145  RH  032%=      5-min Rain = 0
KRO1 120200Z 14010KT 34/15 A2999 RMK A01 T03350145  RH  032%=      5-min Rain = 0
KRO1 120201Z 14010KT 34/15 A2999 RMK A01 T03350145  RH  032%=      5-min Rain = 0
KRO1 120202Z 14010KT 34/15 A2999 RMK A01 T03350145  RH  032%=      5-min Rain = 0
KRO1 120203Z 14010KT 34/15 A2999 RMK A01 T03350145  RH  032%=      5-min Rain = 0
KRO1 120204Z 14010KT 33/15 A2999 RMK A01 T03340145  RH  032%=      5-min Rain = 0
KRO1 120205Z 14011KT 33/15 A2999 RMK A01 T03340145  RH  032%=      5-min Rain = 0
KRO1 120206Z 14010KT 34/15 A2999 RMK A01 T03350145  RH  032%=      5-min Rain = 0
KRO1 120207Z 14010KT 33/15 A2999 RMK A01 T03340145  RH  032%=      5-min Rain = 0
KRO1 120208Z 14010KT 33/15 A2999 RMK A01 T03340145  RH  032%=      5-min Rain = 0
KRO1 120209Z 14009KT 33/15 A2999 RMK A01 T03340145  RH  032%=      5-min Rain = 0
KRO1 120210Z 14010KT 33/15 A2999 RMK A01 T03330145  RH  032%=      5-min Rain = 0
KRO1 120211Z 14009KT 33/15 A2999 RMK A01 T03330145  RH  032%=      5-min Rain = 0
KRO1 120212Z 14010KT 33/15 A30 RMK A01 T03330146  RH  032%=      5-min Rain = 0
KRO1 120213Z 14010KT 33/15 A30 RMK A01 T03320145  RH  032%=      5-min Rain = 0
KRO1 120214Z 14010KT 33/15 A30 RMK A01 T03320146  RH  033%=      5-min Rain = 0
KRO1 120215Z 14009KT 33/15 A30 RMK A01 T03320146  RH  033%=      5-min Rain = 0
KRO1 120216Z 14009KT 33/15 A30 RMK A01 T03310146  RH  033%=      5-min Rain = 0
KRO1 120217Z 14008KT 33/15 A30 RMK A01 T03310146  RH  033%=      5-min Rain = 0
KRO1 120218Z 14009KT 33/15 A30 RMK A01 T03300146  RH  033%=      5-min Rain = 0
KRO1 120219Z 14009KT 33/15 A30 RMK A01 T03300146  RH  033%=      5-min Rain = 0
KRO1 120220Z 14009KT 33/15 A30 RMK A01 T03300146  RH  033%=      5-min Rain = 0
KRO1 120221Z 13009KT 33/15 A30 RMK A01 T03300146  RH  033%=      5-min Rain = 0
KRO1 120222Z 13009KT 33/15 A30 RMK A01 T03290146  RH  033%=      5-min Rain = 0
KRO1 120223Z 13009KT 33/15 A30 RMK A01 T03290146  RH  033%=      5-min Rain = 0
KRO1 120224Z 13009KT 33/15 A30 RMK A01 T03290146  RH  033%=      5-min Rain = 0
KRO1 120225Z 13009KT 33/15 A30 RMK A01 T03290146  RH  033%=      5-min Rain = 0
KRO1 120226Z 13009KT 33/15 A30 RMK A01 T03290146  RH  033%=      5-min Rain = 0
KRO1 120227Z 13009KT 33/15 A30 RMK A01 T03280146  RH  033%=      5-min Rain = 0
KRO1 120228Z 13009KT 33/15 A30 RMK A01 T03280146  RH  033%=      5-min Rain = 0
KRO1 120229Z 14009KT 33/15 A30 RMK A01 T03290146  RH  033%=      5-min Rain = 0
KRO1 120230Z 14009KT 33/15 A30 RMK A01 T03280146  RH  033%=      5-min Rain = 0
KRO1 120231Z 13009KT 33/15 A30 RMK A01 T03280146  RH  033%=      5-min Rain = 0
KRO1 120232Z 13009KT 33/15 A30 RMK A01 T03270146  RH  033%=      5-min Rain = 0
KRO1 120233Z 14008KT 33/15 A30 RMK A01 T03270146  RH  033%=      5-min Rain = 0
KRO1 120234Z 13009KT 33/15 A30 RMK A01 T03270146  RH  034%=      5-min Rain = 0
KRO1 120235Z 14009KT 33/15 A30 RMK A01 T03260146  RH  034%=      5-min Rain = 0
KRO1 120236Z 13009KT 33/15 A30 RMK A01 T03260146  RH  034%=      5-min Rain = 0
KRO1 120237Z 14008KT 33/15 A30 RMK A01 T03260146  RH  034%=      5-min Rain = 0
KRO1 120238Z 13008KT 33/15 A30 RMK A01 T03260146  RH  034%=      5-min Rain = 0
KRO1 120239Z 13009KT 33/15 A30 RMK A01 T03250146  RH  034%=      5-min Rain = 0
KRO1 120240Z 14008KT 33/15 A30 RMK A01 T03250146  RH  034%=      5-min Rain = 0
KRO1 120241Z 14008KT 33/15 A3001 RMK A01 T03250146  RH  034%=      5-min Rain = 0
KRO1 120242Z 14008KT 32/15 A3001 RMK A01 T03240146  RH  034%=      5-min Rain = 0
KRO1 120243Z 13008KT 32/15 A3001 RMK A01 T03240147  RH  034%=      5-min Rain = 0
KRO1 120244Z 14008KT 32/15 A3001 RMK A01 T03240147  RH  034%=      5-min Rain = 0
KRO1 120245Z 14008KT 32/15 A3001 RMK A01 T03240147  RH  034%=      5-min Rain = 0
KRO1 120246Z 14008KT 32/15 A3001 RMK A01 T03230147  RH  034%=      5-min Rain = 0
KRO1 120247Z 14008KT 32/15 A3001 RMK A01 T03230147  RH  035%=      5-min Rain = 0
KRO1 120248Z 14008KT 32/15 A3001 RMK A01 T03220147  RH  035%=      5-min Rain = 0
KRO1 120249Z 13008KT 32/15 A3001 RMK A01 T03220147  RH  035%=      5-min Rain = 0
KRO1 120250Z 13008KT 32/15 A3001 RMK A01 T03220147  RH  035%=      5-min Rain = 0
KRO1 120251Z 13007KT 32/15 A3001 RMK A01 T03220147  RH  035%=      5-min Rain = 0
KRO1 120252Z 13008KT 32/15 A3001 RMK A01 T03210147  RH  035%=      5-min Rain = 0
KRO1 120253Z 14008KT 32/15 A3001 RMK A01 T03210147  RH  035%=      5-min Rain = 0
KRO1 120254Z 14007KT 32/15 A3001 RMK A01 T03210147  RH  035%=      5-min Rain = 0
KRO1 120255Z 14008KT 32/15 A3001 RMK A01 T03210147  RH  035%=      5-min Rain = 0
KRO1 120256Z 14008KT 32/15 A3001 RMK A01 T03200147  RH  035%=      5-min Rain = 0
KRO1 120257Z 13008KT 32/15 A3001 RMK A01 T03200147  RH  035%=      5-min Rain = 0
KRO1 120258Z 13007KT 32/15 A3001 RMK A01 T03200147  RH  035%=      5-min Rain = 0
KRO1 120259Z 13007KT 32/15 A3001 RMK A01 T03190147  RH  035%=      5-min Rain = 0
KRO1 120300Z 13007KT 32/15 A3001 RMK A01 T03190147  RH  035%=      5-min Rain = 0
KRO1 120301Z 13008KT 32/15 A3001 RMK A01 T03190147  RH  035%=      5-min Rain = 0
KRO1 120302Z 13007KT 32/15 A3001 RMK A01 T03190147  RH  035%=      5-min Rain = 0
KRO1 120303Z 13007KT 32/15 A3001 RMK A01 T03190147  RH  035%=      5-min Rain = 0
KRO1 120304Z 13007KT 32/15 A3001 RMK A01 T03180147  RH  036%=      5-min Rain = 0
KRO1 120305Z 13007KT 32/15 A3001 RMK A01 T03180147  RH  036%=      5-min Rain = 0
KRO1 120306Z 13007KT 32/15 A3001 RMK A01 T03180147  RH  036%=      5-min Rain = 0
KRO1 120307Z 13006KT 32/15 A3001 RMK A01 T03180147  RH  036%=      5-min Rain = 0
KRO1 120308Z 13006KT 32/15 A3001 RMK A01 T03170147  RH  036%=      5-min Rain = 0
KRO1 120309Z 13007KT 32/15 A3001 RMK A01 T03170147  RH  036%=      5-min Rain = 0
KRO1 120310Z 13007KT 32/15 A3001 RMK A01 T03160148  RH  036%=      5-min Rain = 0
KRO1 120311Z 13007KT 32/15 A3002 RMK A01 T03160148  RH  036%=      5-min Rain = 0
KRO1 120312Z 14007KT 32/15 A3002 RMK A01 T03150148  RH  036%=      5-min Rain = 0
KRO1 120313Z 13007KT 32/15 A3002 RMK A01 T03150148  RH  036%=      5-min Rain = 0
KRO1 120314Z 13007KT 32/15 A3002 RMK A01 T03150148  RH  036%=      5-min Rain = 0
KRO1 120315Z 13007KT 32/15 A3002 RMK A01 T03150148  RH  036%=      5-min Rain = 0
KRO1 120316Z 13007KT 32/15 A3002 RMK A01 T03150148  RH  036%=      5-min Rain = 0
KRO1 120317Z 13007KT 31/15 A3002 RMK A01 T03140148  RH  036%=      5-min Rain = 0
KRO1 120318Z 13006KT 31/15 A3002 RMK A01 T03140148  RH  036%=      5-min Rain = 0
KRO1 120319Z 13007KT 31/15 A3002 RMK A01 T03140148  RH  037%=      5-min Rain = 0
KRO1 120320Z 13007KT 31/15 A3002 RMK A01 T03140148  RH  037%=      5-min Rain = 0
KRO1 120321Z 13006KT 31/15 A3002 RMK A01 T03140148  RH  037%=      5-min Rain = 0
KRO1 120322Z 13007KT 31/15 A3002 RMK A01 T03140148  RH  037%=      5-min Rain = 0
KRO1 120323Z 13006KT 31/15 A3002 RMK A01 T03130148  RH  037%=      5-min Rain = 0
KRO1 120324Z 13007KT 31/15 A3002 RMK A01 T03130148  RH  037%=      5-min Rain = 0
KRO1 120325Z 13006KT 31/15 A3002 RMK A01 T03130148  RH  037%=      5-min Rain = 0
KRO1 120326Z 13007KT 31/15 A3002 RMK A01 T03130148  RH  037%=      5-min Rain = 0
KRO1 120327Z 13006KT 31/15 A3002 RMK A01 T03120148  RH  037%=      5-min Rain = 0
KRO1 120328Z 13007KT 31/15 A3002 RMK A01 T03120148  RH  037%=      5-min Rain = 0
KRO1 120329Z 13007KT 31/15 A3002 RMK A01 T03110148  RH  037%=      5-min Rain = 0
KRO1 120330Z 13008KT 31/15 A3002 RMK A01 T03110148  RH  037%=      5-min Rain = 0
KRO1 120331Z 13007KT 31/15 A3002 RMK A01 T03110148  RH  037%=      5-min Rain = 0
KRO1 120332Z 13007KT 31/15 A3002 RMK A01 T03110148  RH  037%=      5-min Rain = 0
KRO1 120333Z 13007KT 31/15 A3003 RMK A01 T03110148  RH  037%=      5-min Rain = 0
KRO1 120334Z 13007KT 31/15 A3003 RMK A01 T03110148  RH  037%=      5-min Rain = 0
KRO1 120335Z 13007KT 31/15 A3003 RMK A01 T03110148  RH  037%=      5-min Rain = 0
KRO1 120336Z 13007KT 31/15 A3003 RMK A01 T03110148  RH  037%=      5-min Rain = 0
KRO1 120337Z 13007KT 31/15 A3003 RMK A01 T03110148  RH  037%=      5-min Rain = 0
KRO1 120338Z 13007KT 31/15 A3003 RMK A01 T03110148  RH  037%=      5-min Rain = 0
KRO1 120339Z 13008KT 31/15 A3003 RMK A01 T03100148  RH  037%=      5-min Rain = 0
KRO1 120340Z 13007KT 31/15 A3003 RMK A01 T03100148  RH  037%=      5-min Rain = 0
KRO1 120341Z 13008KT 31/15 A3003 RMK A01 T03100148  RH  037%=      5-min Rain = 0
KRO1 120342Z 13008KT 31/15 A3003 RMK A01 T03090147  RH  037%=      5-min Rain = 0
KRO1 120343Z 13008KT 31/15 A3003 RMK A01 T03090148  RH  037%=      5-min Rain = 0
KRO1 120344Z 13008KT 31/15 A3003 RMK A01 T03090148  RH  038%=      5-min Rain = 0
KRO1 120345Z 13007KT 31/15 A3003 RMK A01 T03090148  RH  038%=      5-min Rain = 0
KRO1 120346Z 13007KT 31/15 A3003 RMK A01 T03080147  RH  038%=      5-min Rain = 0
KRO1 120347Z 13007KT 31/15 A3003 RMK A01 T03070147  RH  038%=      5-min Rain = 0
KRO1 120348Z 13007KT 31/15 A3003 RMK A01 T03060147  RH  038%=      5-min Rain = 0
KRO1 120349Z 13007KT 31/15 A3003 RMK A01 T03060147  RH  038%=      5-min Rain = 0
KRO1 120350Z 13008KT 31/15 A3003 RMK A01 T03050147  RH  038%=      5-min Rain = 0
KRO1 120351Z 13007KT 31/15 A3003 RMK A01 T03060148  RH  038%=      5-min Rain = 0
KRO1 120352Z 13007KT 31/15 A3003 RMK A01 T03050147  RH  038%=      5-min Rain = 0
KRO1 120353Z 13007KT 31/15 A3003 RMK A01 T03050147  RH  038%=      5-min Rain = 0
KRO1 120354Z 13007KT 31/15 A3003 RMK A01 T03050147  RH  038%=      5-min Rain = 0
KRO1 120355Z 13006KT 31/15 A3003 RMK A01 T03050148  RH  038%=      5-min Rain = 0
KRO1 120356Z 13007KT 31/15 A3003 RMK A01 T03050148  RH  038%=      5-min Rain = 0
KRO1 120357Z 12007KT 31/15 A3003 RMK A01 T03050148  RH  038%=      5-min Rain = 0
KRO1 120358Z 13008KT 31/15 A3003 RMK A01 T03050148  RH  039%=      5-min Rain = 0
KRO1 120359Z 13007KT 31/15 A3003 RMK A01 T03050148  RH  039%=      5-min Rain = 0
KRO1 120400Z 13007KT 31/15 A3003 RMK A01 T03050148  RH  039%=      5-min Rain = 0
KRO1 120401Z 13007KT 30/15 A3003 RMK A01 T03040148  RH  039%=      5-min Rain = 0
KRO1 120402Z 12007KT 30/15 A3003 RMK A01 T03030148  RH  039%=      5-min Rain = 0
KRO1 120403Z 12007KT 30/15 A3003 RMK A01 T03030148  RH  039%=      5-min Rain = 0
KRO1 120404Z 12007KT 30/15 A3003 RMK A01 T03020148  RH  039%=      5-min Rain = 0
KRO1 120405Z 11008KT 30/15 A3003 RMK A01 T03020148  RH  039%=      5-min Rain = 0
KRO1 120406Z 10007KT 30/15 A3003 RMK A01 T03020149  RH  039%=      5-min Rain = 0
KRO1 120407Z 11008KT 30/15 A3003 RMK A01 T03010150  RH  040%=      5-min Rain = 0
KRO1 120408Z 10008KT 30/15 A3003 RMK A01 T03010150  RH  040%=      5-min Rain = 0
KRO1 120409Z 10008KT 30/15 A3003 RMK A01 T03010151  RH  040%=      5-min Rain = 0
KRO1 120410Z 10008KT 30/15 A3003 RMK A01 T03000151  RH  040%=      5-min Rain = 0
KRO1 120411Z 10008KT 30/15 A3003 RMK A01 T03000151  RH  041%=      5-min Rain = 0
KRO1 120412Z 10008KT 30/15 A3003 RMK A01 T02990152  RH  041%=      5-min Rain = 0
KRO1 120413Z 09007KT 30/15 A3003 RMK A01 T02990152  RH  041%=      5-min Rain = 0
KRO1 120414Z 10008KT 30/15 A3004 RMK A01 T02980153  RH  041%=      5-min Rain = 0
KRO1 120415Z 10007KT 30/15 A3004 RMK A01 T02970153  RH  042%=      5-min Rain = 0
KRO1 120416Z 10007KT 30/16 A3004 RMK A01 T02970155  RH  042%=      5-min Rain = 0
KRO1 120417Z 10008KT 30/16 A3004 RMK A01 T02960156  RH  043%=      5-min Rain = 0
KRO1 120418Z 10008KT 30/16 A3004 RMK A01 T02960157  RH  043%=      5-min Rain = 0
KRO1 120419Z 10008KT 30/16 A3004 RMK A01 T02960158  RH  043%=      5-min Rain = 0
KRO1 120420Z 10009KT 30/16 A3004 RMK A01 T02950159  RH  044%=      5-min Rain = 0
KRO1 120421Z 10007KT 30/16 A3004 RMK A01 T02950160  RH  044%=      5-min Rain = 0
KRO1 120422Z 10008KT 30/16 A3004 RMK A01 T02950161  RH  044%=      5-min Rain = 0
KRO1 120423Z 10008KT 29/16 A3004 RMK A01 T02940162  RH  045%=      5-min Rain = 0
KRO1 120424Z 10008KT 29/16 A3004 RMK A01 T02940164  RH  046%=      5-min Rain = 0
KRO1 120425Z 10008KT 29/17 A3004 RMK A01 T02930165  RH  046%=      5-min Rain = 0
KRO1 120426Z 10008KT 29/17 A3004 RMK A01 T02930166  RH  046%=      5-min Rain = 0
KRO1 120427Z 10008KT 29/17 A3004 RMK A01 T02930168  RH  047%=      5-min Rain = 0
KRO1 120428Z 10008KT 29/17 A3004 RMK A01 T02920169  RH  047%=      5-min Rain = 0
KRO1 120429Z 10008KT 29/17 A3004 RMK A01 T02920170  RH  048%=      5-min Rain = 0
KRO1 120430Z 10008KT 29/17 A3004 RMK A01 T02910171  RH  048%=      5-min Rain = 0
KRO1 120431Z 10008KT 29/17 A3004 RMK A01 T02910172  RH  049%=      5-min Rain = 0
KRO1 120432Z 10008KT 29/17 A3004 RMK A01 T02910173  RH  049%=      5-min Rain = 0
KRO1 120433Z 10009KT 29/17 A3004 RMK A01 T02910174  RH  049%=      5-min Rain = 0
KRO1 120434Z 10009KT 29/18 A3004 RMK A01 T02910175  RH  050%=      5-min Rain = 0
KRO1 120435Z 10008KT 29/18 A3004 RMK A01 T02910175  RH  050%=      5-min Rain = 0
KRO1 120436Z 10008KT 29/18 A3004 RMK A01 T02900176  RH  050%=      5-min Rain = 0
KRO1 120437Z 10009KT 29/18 A3004 RMK A01 T02900176  RH  050%=      5-min Rain = 0
KRO1 120438Z 10008KT 29/18 A3005 RMK A01 T02900177  RH  050%=      5-min Rain = 0
KRO1 120439Z 10009KT 29/18 A3005 RMK A01 T02900177  RH  051%=      5-min Rain = 0
KRO1 120440Z 10008KT 29/18 A3005 RMK A01 T02900178  RH  051%=      5-min Rain = 0
KRO1 120441Z 10009KT 29/18 A3005 RMK A01 T02900178  RH  051%=      5-min Rain = 0
KRO1 120442Z 10008KT 29/18 A3005 RMK A01 T02900178  RH  051%=      5-min Rain = 0
KRO1 120443Z 10008KT 29/18 A3005 RMK A01 T02900178  RH  051%=      5-min Rain = 0
KRO1 120444Z 11008KT 29/18 A3005 RMK A01 T02890178  RH  051%=      5-min Rain = 0
KRO1 120445Z 10008KT 29/18 A3005 RMK A01 T02890179  RH  051%=      5-min Rain = 0
KRO1 120446Z 10008KT 29/18 A3005 RMK A01 T02890179  RH  051%=      5-min Rain = 0
KRO1 120447Z 11010KT 29/18 A3005 RMK A01 T02890179  RH  052%=      5-min Rain = 0
KRO1 120448Z 10009KT 29/18 A3004 RMK A01 T02890179  RH  052%=      5-min Rain = 0
KRO1 120449Z 11008KT 29/18 A3004 RMK A01 T02890180  RH  051%=      5-min Rain = 0
KRO1 120450Z 10008KT 29/18 A3005 RMK A01 T02890179  RH  051%=      5-min Rain = 0
KRO1 120451Z 10010KT 29/18 A3005 RMK A01 T02890180  RH  052%=      5-min Rain = 0
KRO1 120452Z 11009KT 29/18 A3005 RMK A01 T02890180  RH  052%=      5-min Rain = 0
KRO1 120453Z 11009KT 29/18 A3005 RMK A01 T02890180  RH  052%=      5-min Rain = 0
KRO1 120454Z 11009KT 29/18 A3005 RMK A01 T02900180  RH  052%=      5-min Rain = 0
KRO1 120455Z 11008KT 29/18 A3005 RMK A01 T02890180  RH  052%=      5-min Rain = 0
KRO1 120456Z 11008KT 29/18 A3004 RMK A01 T02890179  RH  052%=      5-min Rain = 0
KRO1 120457Z 11009KT 29/18 A3004 RMK A01 T02890180  RH  052%=      5-min Rain = 0
KRO1 120458Z 11009KT 29/18 A3004 RMK A01 T02880180  RH  052%=      5-min Rain = 0
KRO1 120459Z 11010KT 29/18 A3004 RMK A01 T02880179  RH  052%=      5-min Rain = 0
KRO1 120500Z 11009KT 29/18 A3004 RMK A01 T02880179  RH  052%=      5-min Rain = 0

Page generated in 0.0495 seconds.